^^
Station Historical Data
Daily Summary for January 9, 2018 Units:  Both    English   Metric
« Previous Day
Next Day »
Daily Weekly Monthly Yearly Custom
  High: Low: Average:
Temperature: TemperatureF °F /  -17.8 °C 66.7 °F /  19.3 °C 80.5 °F /  26.9 °C
Dew Point: DewpointF °F /  -17.8 °C 30.4 °F /  -0.9 °C 36.6 °F /  2.6 °C
Humidity: Humidity% 10% 23%
Wind Speed: WindSpeedMPHmph /  0km/h - 3.5mph /  5.6km/h
Wind Gust: WindSpeedGustMPHmph /  0km/h - -
Wind- - SSE
Pressure: PressureIn in /  0 hPa 29.60 in /  1002.3 hPa -
Precipitation: 0.00 in /  0 mm    
Historical Graphs
 
 
Tabular Data for January 9, 2018
Time Temperature Dew Point Pressure Wind Wind Speed Wind Gust Humidity Rainfall Rate (Hourly) solar Conditions
TemperatureF °F /  -17.8 °C DewpointF °F /  -17.8 °C PressureInin /  0hPa Calm     Humidity% HourlyPrecipInin /  0mm SolarRadiationWatts/m^2 W/m2 Conditions
00:04 72.1 °F /  22.3 °C 40.6 °F /  4.8 °C 30.22in /  1023.2hPa SE 6.0mph /  9.7km/h 7.0mph /  11.3km/h 32% 0.00in /  0mm 0.0 W/m2
00:09 72.3 °F /  22.4 °C 39.9 °F /  4.4 °C 30.21in /  1022.9hPa Calm   7.0mph /  11.3km/h 31% 0.00in /  0mm 0.0 W/m2
00:14 72.3 °F /  22.4 °C 40.8 °F /  4.9 °C 30.21in /  1022.9hPa South 0.9mph /  1.4km/h 8.0mph /  12.9km/h 32% 0.00in /  0mm 0.0 W/m2
00:16 72.3 °F /  22.4 °C 40.8 °F /  4.9 °C 30.21in /  1022.9hPa SE 2.9mph /  4.7km/h 5.0mph /  8km/h 32% 0.00in /  0mm 0.0 W/m2
00:19 72.3 °F /  22.4 °C 40.8 °F /  4.9 °C 30.21in /  1022.9hPa SSE 2.0mph /  3.2km/h 6.0mph /  9.7km/h 32% 0.00in /  0mm 0.0 W/m2
00:24 72.3 °F /  22.4 °C 40.8 °F /  4.9 °C 29.74in /  1007hPa Calm   3.0mph /  4.8km/h 32% 0.00in /  0mm 0.0 W/m2
00:29 72.1 °F /  22.3 °C 40.6 °F /  4.8 °C 30.21in /  1022.9hPa Calm   6.0mph /  9.7km/h 32% 0.00in /  0mm 0.0 W/m2
00:34 72.1 °F /  22.3 °C 39.9 °F /  4.4 °C 30.20in /  1022.6hPa SSW 2.9mph /  4.7km/h 3.0mph /  4.8km/h 31% 0.00in /  0mm 0.0 W/m2
00:35 72.1 °F /  22.3 °C 40.6 °F /  4.8 °C 30.20in /  1022.6hPa WSW 0.9mph /  1.4km/h 4.0mph /  6.4km/h 32% 0.00in /  0mm 0.0 W/m2
00:39 72.0 °F /  22.2 °C 40.5 °F /  4.7 °C 30.20in /  1022.6hPa Calm   6.0mph /  9.7km/h 32% 0.00in /  0mm 0.0 W/m2
00:40 72.0 °F /  22.2 °C 40.5 °F /  4.7 °C 30.20in /  1022.6hPa SSW 2.0mph /  3.2km/h 5.0mph /  8km/h 32% 0.00in /  0mm 0.0 W/m2
00:45 72.0 °F /  22.2 °C 40.5 °F /  4.7 °C 30.20in /  1022.6hPa South 0.9mph /  1.4km/h 3.0mph /  4.8km/h 32% 0.00in /  0mm 0.0 W/m2
00:46 71.8 °F /  22.1 °C 40.3 °F /  4.6 °C 30.20in /  1022.6hPa Calm   4.0mph /  6.4km/h 32% 0.00in /  0mm 0.0 W/m2
00:50 71.8 °F /  22.1 °C 40.3 °F /  4.6 °C 29.73in /  1006.7hPa SSW 0.9mph /  1.4km/h 3.0mph /  4.8km/h 32% 0.00in /  0mm 0.0 W/m2
00:55 71.4 °F /  21.9 °C 40.1 °F /  4.5 °C 30.20in /  1022.6hPa SSW 2.0mph /  3.2km/h 6.0mph /  9.7km/h 32% 0.00in /  0mm 0.0 W/m2
01:00 71.4 °F /  21.9 °C 40.1 °F /  4.5 °C 30.20in /  1022.6hPa Calm   5.0mph /  8km/h 32% 0.00in /  0mm 0.0 W/m2
01:05 71.2 °F /  21.8 °C 39.9 °F /  4.4 °C 30.20in /  1022.6hPa SSW 0.9mph /  1.4km/h 1.0mph /  1.6km/h 32% 0.00in /  0mm 0.0 W/m2
01:08 71.2 °F /  21.8 °C 39.0 °F /  3.9 °C 30.19in /  1022.2hPa SW 2.9mph /  4.7km/h 5.0mph /  8km/h 31% 0.00in /  0mm 0.0 W/m2
01:10 71.2 °F /  21.8 °C 39.0 °F /  3.9 °C 30.20in /  1022.6hPa SSW 2.0mph /  3.2km/h 2.0mph /  3.2km/h 31% 0.00in /  0mm 0.0 W/m2
01:12 71.2 °F /  21.8 °C 39.0 °F /  3.9 °C 30.20in /  1022.6hPa Calm   2.0mph /  3.2km/h 31% 0.00in /  0mm 0.0 W/m2
01:16 71.2 °F /  21.8 °C 39.0 °F /  3.9 °C 30.20in /  1022.6hPa SW 2.9mph /  4.7km/h 5.0mph /  8km/h 31% 0.00in /  0mm 0.0 W/m2
01:21 71.2 °F /  21.8 °C 39.9 °F /  4.4 °C 30.20in /  1022.6hPa SSW 0.9mph /  1.4km/h 4.0mph /  6.4km/h 32% 0.00in /  0mm 0.0 W/m2
01:26 71.1 °F /  21.7 °C 38.8 °F /  3.8 °C 29.72in /  1006.3hPa SW 0.9mph /  1.4km/h 2.0mph /  3.2km/h 31% 0.00in /  0mm 0.0 W/m2
01:31 71.1 °F /  21.7 °C 39.7 °F /  4.3 °C 30.19in /  1022.2hPa Calm   1.0mph /  1.6km/h 32% 0.00in /  0mm 0.0 W/m2
01:32 70.9 °F /  21.6 °C 39.6 °F /  4.2 °C 30.19in /  1022.2hPa Calm   3.0mph /  4.8km/h 32% 0.00in /  0mm 0.0 W/m2
01:36 70.9 °F /  21.6 °C 39.6 °F /  4.2 °C 30.19in /  1022.2hPa Calm     32% 0.00in /  0mm 0.0 W/m2
01:39 70.7 °F /  21.5 °C 39.4 °F /  4.1 °C 30.19in /  1022.2hPa Calm   1.0mph /  1.6km/h 32% 0.00in /  0mm 0.0 W/m2
01:44 70.3 °F /  21.3 °C 39.0 °F /  3.9 °C 29.72in /  1006.3hPa Calm     32% 0.00in /  0mm 0.0 W/m2
01:46 70.3 °F /  21.3 °C 39.0 °F /  3.9 °C 30.19in /  1022.2hPa Calm   1.0mph /  1.6km/h 32% 0.00in /  0mm 0.0 W/m2
01:47 70.5 °F /  21.4 °C 39.2 °F /  4 °C 30.19in /  1022.2hPa Calm   2.0mph /  3.2km/h 32% 0.00in /  0mm 0.0 W/m2
01:51 70.0 °F /  21.1 °C 38.8 °F /  3.8 °C 30.19in /  1022.2hPa Calm     32% 0.00in /  0mm 0.0 W/m2
01:55 69.8 °F /  21 °C 39.4 °F /  4.1 °C 30.19in /  1022.2hPa Calm     33% 0.00in /  0mm 0.0 W/m2
01:57 69.6 °F /  20.9 °C 39.2 °F /  4 °C 30.19in /  1022.2hPa Calm   1.0mph /  1.6km/h 33% 0.00in /  0mm 0.0 W/m2
02:00 69.4 °F /  20.8 °C 39.0 °F /  3.9 °C 30.19in /  1022.2hPa Calm   1.0mph /  1.6km/h 33% 0.00in /  0mm 0.0 W/m2
02:02 69.3 °F /  20.7 °C 38.8 °F /  3.8 °C 30.19in /  1022.2hPa Calm   1.0mph /  1.6km/h 33% 0.00in /  0mm 0.0 W/m2
02:07 69.1 °F /  20.6 °C 39.6 °F /  4.2 °C 30.19in /  1022.2hPa Calm     34% 0.00in /  0mm 0.0 W/m2
02:12 68.7 °F /  20.4 °C 39.2 °F /  4 °C 30.19in /  1022.2hPa Calm   1.0mph /  1.6km/h 34% 0.00in /  0mm 0.0 W/m2
02:16 68.5 °F /  20.3 °C 39.0 °F /  3.9 °C 30.19in /  1022.2hPa Calm     34% 0.00in /  0mm 0.0 W/m2
02:22 68.5 °F /  20.3 °C 39.0 °F /  3.9 °C 30.19in /  1022.2hPa Calm     34% 0.00in /  0mm 0.0 W/m2
02:24 68.2 °F /  20.1 °C 38.7 °F /  3.7 °C 30.19in /  1022.2hPa Calm   1.0mph /  1.6km/h 34% 0.00in /  0mm 0.0 W/m2
02:25 68.2 °F /  20.1 °C 38.7 °F /  3.7 °C 30.19in /  1022.2hPa ENE 2.0mph /  3.2km/h 3.0mph /  4.8km/h 34% 0.00in /  0mm 0.0 W/m2
02:29 68.0 °F /  20 °C 37.8 °F /  3.2 °C 30.19in /  1022.2hPa Calm   3.0mph /  4.8km/h 33% 0.00in /  0mm 0.0 W/m2
02:30 68.0 °F /  20 °C 37.8 °F /  3.2 °C 30.18in /  1021.9hPa WSW 2.0mph /  3.2km/h 3.0mph /  4.8km/h 33% 0.00in /  0mm 0.0 W/m2
02:32 68.2 °F /  20.1 °C 37.2 °F /  2.9 °C 30.18in /  1021.9hPa Calm   3.0mph /  4.8km/h 32% 0.00in /  0mm 0.0 W/m2
02:37 68.4 °F /  20.2 °C 36.5 °F /  2.5 °C 30.18in /  1021.9hPa Calm   3.0mph /  4.8km/h 31% 0.00in /  0mm 0.0 W/m2
02:38 68.4 °F /  20.2 °C 36.5 °F /  2.5 °C 30.18in /  1021.9hPa Calm   7.0mph /  11.3km/h 31% 0.00in /  0mm 0.0 W/m2
02:42 68.7 °F /  20.4 °C 36.9 °F /  2.7 °C 30.18in /  1021.9hPa South 4.0mph /  6.4km/h 7.0mph /  11.3km/h 31% 0.00in /  0mm 0.0 W/m2
02:45 69.1 °F /  20.6 °C 37.2 °F /  2.9 °C 30.17in /  1021.6hPa SSW 0.9mph /  1.4km/h 5.0mph /  8km/h 31% 0.00in /  0mm 0.0 W/m2
02:50 69.6 °F /  20.9 °C 36.9 °F /  2.7 °C 30.17in /  1021.6hPa East 8.1mph /  13km/h 8.1mph /  13km/h 30% 0.00in /  0mm 0.0 W/m2
02:51 69.6 °F /  20.9 °C 36.9 °F /  2.7 °C 30.17in /  1021.6hPa ESE 2.0mph /  3.2km/h 8.0mph /  12.9km/h 30% 0.00in /  0mm 0.0 W/m2
02:56 70.2 °F /  21.2 °C 37.2 °F /  2.9 °C 30.17in /  1021.6hPa Calm   5.0mph /  8km/h 30% 0.00in /  0mm 0.0 W/m2
03:01 70.2 °F /  21.2 °C 37.2 °F /  2.9 °C 30.17in /  1021.6hPa South 2.9mph /  4.7km/h 4.0mph /  6.4km/h 30% 0.00in /  0mm 0.0 W/m2
03:06 70.3 °F /  21.3 °C 36.5 °F /  2.5 °C 30.17in /  1021.6hPa South 2.0mph /  3.2km/h 6.0mph /  9.7km/h 29% 0.00in /  0mm 0.0 W/m2
03:09 70.3 °F /  21.3 °C 37.4 °F /  3 °C 30.17in /  1021.6hPa ENE 2.9mph /  4.7km/h 10.0mph /  16.1km/h 30% 0.00in /  0mm 0.0 W/m2
03:13 70.3 °F /  21.3 °C 37.4 °F /  3 °C 30.17in /  1021.6hPa Calm   13.0mph /  20.9km/h 30% 0.00in /  0mm 0.0 W/m2
03:14 70.3 °F /  21.3 °C 36.5 °F /  2.5 °C 30.17in /  1021.6hPa Calm   9.0mph /  14.5km/h 29% 0.00in /  0mm 0.0 W/m2
03:16 70.3 °F /  21.3 °C 36.5 °F /  2.5 °C 30.17in /  1021.6hPa SSE 2.0mph /  3.2km/h 7.0mph /  11.3km/h 29% 0.00in /  0mm 0.0 W/m2
03:17 70.3 °F /  21.3 °C 36.5 °F /  2.5 °C 30.16in /  1021.2hPa SE 0.9mph /  1.4km/h 7.0mph /  11.3km/h 29% 0.00in /  0mm 0.0 W/m2
03:19 70.3 °F /  21.3 °C 37.4 °F /  3 °C 29.70in /  1005.6hPa South 0.9mph /  1.4km/h 4.0mph /  6.4km/h 30% 0.00in /  0mm 0.0 W/m2
03:21 70.2 °F /  21.2 °C 36.5 °F /  2.5 °C 30.17in /  1021.6hPa SSW 2.9mph /  4.7km/h 8.0mph /  12.9km/h 29% 0.00in /  0mm 0.0 W/m2
03:23 70.2 °F /  21.2 °C 36.5 °F /  2.5 °C 30.17in /  1021.6hPa SSW 2.0mph /  3.2km/h 10.0mph /  16.1km/h 29% 0.00in /  0mm 0.0 W/m2
03:24 70.2 °F /  21.2 °C 36.5 °F /  2.5 °C 30.17in /  1021.6hPa East 2.9mph /  4.7km/h 8.0mph /  12.9km/h 29% 0.00in /  0mm 0.0 W/m2
03:28 70.3 °F /  21.3 °C 36.5 °F /  2.5 °C 30.17in /  1021.6hPa South 6.0mph /  9.7km/h 11.0mph /  17.7km/h 29% 0.00in /  0mm 0.0 W/m2
03:29 70.3 °F /  21.3 °C 36.5 °F /  2.5 °C 30.17in /  1021.6hPa SE 2.0mph /  3.2km/h 11.0mph /  17.7km/h 29% 0.00in /  0mm 0.0 W/m2
03:34 70.3 °F /  21.3 °C 36.5 °F /  2.5 °C 30.17in /  1021.6hPa South 4.0mph /  6.4km/h 12.0mph /  19.3km/h 29% 0.00in /  0mm 0.0 W/m2
03:35 70.3 °F /  21.3 °C 36.5 °F /  2.5 °C 30.17in /  1021.6hPa ESE 4.0mph /  6.4km/h 12.0mph /  19.3km/h 29% 0.00in /  0mm 0.0 W/m2
03:38 70.5 °F /  21.4 °C 36.7 °F /  2.6 °C 29.70in /  1005.6hPa SE 4.0mph /  6.4km/h 12.0mph /  19.3km/h 29% 0.00in /  0mm 0.0 W/m2
03:39 70.3 °F /  21.3 °C 36.5 °F /  2.5 °C 30.17in /  1021.6hPa SE 4.0mph /  6.4km/h 12.0mph /  19.3km/h 29% 0.00in /  0mm 0.0 W/m2
03:45 70.5 °F /  21.4 °C 36.7 °F /  2.6 °C 30.16in /  1021.2hPa ESE 4.9mph /  7.9km/h 8.0mph /  12.9km/h 29% 0.00in /  0mm 0.0 W/m2
03:46 70.5 °F /  21.4 °C 36.7 °F /  2.6 °C 30.17in /  1021.6hPa SSE 8.9mph /  14.3km/h 12.0mph /  19.3km/h 29% 0.00in /  0mm 0.0 W/m2
03:51 70.3 °F /  21.3 °C 36.5 °F /  2.5 °C 30.16in /  1021.2hPa South 10.1mph /  16.3km/h 11.0mph /  17.7km/h 29% 0.00in /  0mm 0.0 W/m2
03:52 70.3 °F /  21.3 °C 36.5 °F /  2.5 °C 30.16in /  1021.2hPa SE 6.0mph /  9.7km/h 12.0mph /  19.3km/h 29% 0.00in /  0mm 0.0 W/m2
03:54 70.3 °F /  21.3 °C 36.5 °F /  2.5 °C 30.16in /  1021.2hPa South 2.9mph /  4.7km/h 13.0mph /  20.9km/h 29% 0.00in /  0mm 0.0 W/m2
03:55 70.3 °F /  21.3 °C 36.5 °F /  2.5 °C 30.16in /  1021.2hPa South 6.9mph /  11.1km/h 12.0mph /  19.3km/h 29% 0.00in /  0mm 0.0 W/m2
04:00 70.3 °F /  21.3 °C 37.4 °F /  3 °C 29.69in /  1005.3hPa ESE 6.0mph /  9.7km/h 15.0mph /  24.1km/h 30% 0.00in /  0mm 0.0 W/m2
04:01 70.3 °F /  21.3 °C 37.4 °F /  3 °C 30.16in /  1021.2hPa SSE 4.9mph /  7.9km/h 15.0mph /  24.1km/h 30% 0.00in /  0mm 0.0 W/m2
04:06 70.3 °F /  21.3 °C 37.4 °F /  3 °C 30.16in /  1021.2hPa SE 4.0mph /  6.4km/h 14.0mph /  22.5km/h 30% 0.00in /  0mm 0.0 W/m2
04:09 70.3 °F /  21.3 °C 37.4 °F /  3 °C 30.16in /  1021.2hPa ESE 8.9mph /  14.3km/h 11.0mph /  17.7km/h 30% 0.00in /  0mm 0.0 W/m2
04:14 70.2 °F /  21.2 °C 37.2 °F /  2.9 °C 30.16in /  1021.2hPa SSE 2.9mph /  4.7km/h 14.0mph /  22.5km/h 30% 0.00in /  0mm 0.0 W/m2
04:17 70.2 °F /  21.2 °C 38.1 °F /  3.4 °C 30.16in /  1021.2hPa ESE 10.1mph /  16.3km/h 14.0mph /  22.5km/h 31% 0.00in /  0mm 0.0 W/m2
04:24 70.2 °F /  21.2 °C 37.2 °F /  2.9 °C 30.16in /  1021.2hPa SE 8.1mph /  13km/h 16.0mph /  25.7km/h 30% 0.00in /  0mm 0.0 W/m2
04:26 70.0 °F /  21.1 °C 37.9 °F /  3.3 °C 30.16in /  1021.2hPa ENE 2.0mph /  3.2km/h 10.0mph /  16.1km/h 31% 0.00in /  0mm 0.0 W/m2
04:27 70.0 °F /  21.1 °C 37.9 °F /  3.3 °C 29.69in /  1005.3hPa SE 10.1mph /  16.3km/h 13.0mph /  20.9km/h 31% 0.00in /  0mm 0.0 W/m2
04:28 70.0 °F /  21.1 °C 37.9 °F /  3.3 °C 30.16in /  1021.2hPa SSE 6.9mph /  11.1km/h 14.0mph /  22.5km/h 31% 0.00in /  0mm 0.0 W/m2
04:29 70.0 °F /  21.1 °C 37.9 °F /  3.3 °C 29.69in /  1005.3hPa SSE 8.9mph /  14.3km/h 14.0mph /  22.5km/h 31% 0.00in /  0mm 0.0 W/m2
04:30 70.0 °F /  21.1 °C 37.9 °F /  3.3 °C 30.16in /  1021.2hPa SSE 2.0mph /  3.2km/h 12.0mph /  19.3km/h 31% 0.00in /  0mm 0.0 W/m2
04:32 69.8 °F /  21 °C 37.8 °F /  3.2 °C 30.16in /  1021.2hPa South 2.0mph /  3.2km/h 9.0mph /  14.5km/h 31% 0.00in /  0mm 0.0 W/m2
04:35 69.6 °F /  20.9 °C 37.6 °F /  3.1 °C 30.16in /  1021.2hPa SSE 8.1mph /  13km/h 17.0mph /  27.4km/h 31% 0.00in /  0mm 0.0 W/m2
04:37 69.6 °F /  20.9 °C 37.6 °F /  3.1 °C 30.16in /  1021.2hPa SW 4.9mph /  7.9km/h 13.0mph /  20.9km/h 31% 0.00in /  0mm 0.0 W/m2
04:42 69.6 °F /  20.9 °C 38.5 °F /  3.6 °C 30.16in /  1021.2hPa South 8.1mph /  13km/h 11.0mph /  17.7km/h 32% 0.00in /  0mm 0.0 W/m2
04:43 69.4 °F /  20.8 °C 38.3 °F /  3.5 °C 30.16in /  1021.2hPa SSE 8.1mph /  13km/h 11.0mph /  17.7km/h 32% 0.00in /  0mm 0.0 W/m2
04:45 69.4 °F /  20.8 °C 38.3 °F /  3.5 °C 30.16in /  1021.2hPa SSW 2.0mph /  3.2km/h 14.0mph /  22.5km/h 32% 0.00in /  0mm 0.0 W/m2
04:46 69.4 °F /  20.8 °C 38.3 °F /  3.5 °C 30.16in /  1021.2hPa South 4.9mph /  7.9km/h 14.0mph /  22.5km/h 32% 0.00in /  0mm 0.0 W/m2
04:55 69.3 °F /  20.7 °C 38.1 °F /  3.4 °C 30.17in /  1021.6hPa SSW 8.1mph /  13km/h 8.1mph /  13km/h 32% 0.00in /  0mm 0.0 W/m2
04:56 69.1 °F /  20.6 °C 37.9 °F /  3.3 °C 30.17in /  1021.6hPa South 2.9mph /  4.7km/h 12.0mph /  19.3km/h 32% 0.00in /  0mm 0.0 W/m2
04:58 69.1 °F /  20.6 °C 38.8 °F /  3.8 °C 29.70in /  1005.6hPa SE 0.9mph /  1.4km/h 12.0mph /  19.3km/h 33% 0.00in /  0mm 0.0 W/m2
05:00 69.1 °F /  20.6 °C 37.9 °F /  3.3 °C 29.69in /  1005.3hPa South 11.0mph /  17.7km/h 11.0mph /  17.7km/h 32% 0.00in /  0mm 0.0 W/m2
05:01 68.9 °F /  20.5 °C 38.7 °F /  3.7 °C 30.17in /  1021.6hPa South 2.9mph /  4.7km/h 14.0mph /  22.5km/h 33% 0.00in /  0mm 0.0 W/m2
05:02 68.9 °F /  20.5 °C 38.7 °F /  3.7 °C 30.17in /  1021.6hPa SSE 6.9mph /  11.1km/h 14.0mph /  22.5km/h 33% 0.00in /  0mm 0.0 W/m2
05:03 68.9 °F /  20.5 °C 38.7 °F /  3.7 °C 30.17in /  1021.6hPa SSE 6.9mph /  11.1km/h 14.0mph /  22.5km/h 33% 0.00in /  0mm 0.0 W/m2
05:06 68.7 °F /  20.4 °C 38.5 °F /  3.6 °C 30.17in /  1021.6hPa SSE 10.1mph /  16.3km/h 11.0mph /  17.7km/h 33% 0.00in /  0mm 0.0 W/m2
05:08 68.7 °F /  20.4 °C 38.5 °F /  3.6 °C 30.17in /  1021.6hPa SSE 4.9mph /  7.9km/h 12.0mph /  19.3km/h 33% 0.00in /  0mm 0.0 W/m2
05:10 68.7 °F /  20.4 °C 38.5 °F /  3.6 °C 30.17in /  1021.6hPa South 0.9mph /  1.4km/h 14.0mph /  22.5km/h 33% 0.00in /  0mm 0.0 W/m2
05:15 68.5 °F /  20.3 °C 38.3 °F /  3.5 °C 30.17in /  1021.6hPa ESE 8.1mph /  13km/h 17.0mph /  27.4km/h 33% 0.00in /  0mm 0.0 W/m2
05:16 68.5 °F /  20.3 °C 38.3 °F /  3.5 °C 30.17in /  1021.6hPa SSE 4.0mph /  6.4km/h 17.0mph /  27.4km/h 33% 0.00in /  0mm 0.0 W/m2
05:21 68.4 °F /  20.2 °C 38.8 °F /  3.8 °C 30.17in /  1021.6hPa ESE 2.9mph /  4.7km/h 16.0mph /  25.7km/h 34% 0.00in /  0mm 0.0 W/m2
05:23 68.4 °F /  20.2 °C 38.8 °F /  3.8 °C 30.17in /  1021.6hPa SSE 12.1mph /  19.5km/h 18.0mph /  29km/h 34% 0.00in /  0mm 0.0 W/m2
05:26 68.4 °F /  20.2 °C 38.8 °F /  3.8 °C 30.17in /  1021.6hPa South 2.9mph /  4.7km/h 9.0mph /  14.5km/h 34% 0.00in /  0mm 0.0 W/m2
05:28 68.4 °F /  20.2 °C 38.8 °F /  3.8 °C 30.17in /  1021.6hPa SE 6.0mph /  9.7km/h 18.0mph /  29km/h 34% 0.00in /  0mm 0.0 W/m2
05:31 68.2 °F /  20.1 °C 38.7 °F /  3.7 °C 30.17in /  1021.6hPa South 6.0mph /  9.7km/h 15.0mph /  24.1km/h 34% 0.00in /  0mm 0.0 W/m2
05:32 68.2 °F /  20.1 °C 38.7 °F /  3.7 °C 30.17in /  1021.6hPa SSE 4.9mph /  7.9km/h 8.0mph /  12.9km/h 34% 0.00in /  0mm 0.0 W/m2
05:33 68.2 °F /  20.1 °C 38.7 °F /  3.7 °C 30.17in /  1021.6hPa SE 6.9mph /  11.1km/h 18.0mph /  29km/h 34% 0.00in /  0mm 0.0 W/m2
05:34 68.2 °F /  20.1 °C 38.7 °F /  3.7 °C 30.17in /  1021.6hPa SSE 6.0mph /  9.7km/h 18.0mph /  29km/h 34% 0.00in /  0mm 0.0 W/m2
05:35 68.2 °F /  20.1 °C 38.7 °F /  3.7 °C 30.17in /  1021.6hPa SSE 8.9mph /  14.3km/h 14.0mph /  22.5km/h 34% 0.00in /  0mm 0.0 W/m2
05:36 68.2 °F /  20.1 °C 38.7 °F /  3.7 °C 30.17in /  1021.6hPa East 4.9mph /  7.9km/h 17.0mph /  27.4km/h 34% 0.00in /  0mm 0.0 W/m2
05:39 68.2 °F /  20.1 °C 38.7 °F /  3.7 °C 30.17in /  1021.6hPa SE 4.0mph /  6.4km/h 13.0mph /  20.9km/h 34% 0.00in /  0mm 0.0 W/m2
05:40 68.2 °F /  20.1 °C 38.7 °F /  3.7 °C 30.18in /  1021.9hPa SSE 6.9mph /  11.1km/h 11.0mph /  17.7km/h 34% 0.00in /  0mm 0.0 W/m2
05:46 68.2 °F /  20.1 °C 38.7 °F /  3.7 °C 30.17in /  1021.6hPa SSE 6.9mph /  11.1km/h 9.0mph /  14.5km/h 34% 0.00in /  0mm 0.0 W/m2
05:50 67.8 °F /  19.9 °C 38.5 °F /  3.6 °C 30.17in /  1021.6hPa SSE 13.0mph /  20.9km/h 21.0mph /  33.8km/h 34% 0.00in /  0mm 0.0 W/m2
05:51 67.8 °F /  19.9 °C 38.5 °F /  3.6 °C 30.17in /  1021.6hPa SSE 4.9mph /  7.9km/h 15.0mph /  24.1km/h 34% 0.00in /  0mm 0.0 W/m2
05:52 67.8 °F /  19.9 °C 38.5 °F /  3.6 °C 30.17in /  1021.6hPa SE 8.9mph /  14.3km/h 9.0mph /  14.5km/h 34% 0.00in /  0mm 0.0 W/m2
05:53 67.8 °F /  19.9 °C 38.5 °F /  3.6 °C 30.18in /  1021.9hPa SE 17.0mph /  27.4km/h 17.0mph /  27.4km/h 34% 0.00in /  0mm 0.0 W/m2
05:55 67.8 °F /  19.9 °C 38.5 °F /  3.6 °C 30.17in /  1021.6hPa South 2.9mph /  4.7km/h 13.0mph /  20.9km/h 34% 0.00in /  0mm 0.0 W/m2
05:56 67.8 °F /  19.9 °C 38.5 °F /  3.6 °C 30.17in /  1021.6hPa SSE 10.1mph /  16.3km/h 14.0mph /  22.5km/h 34% 0.00in /  0mm 0.0 W/m2
05:58 67.8 °F /  19.9 °C 38.5 °F /  3.6 °C 30.17in /  1021.6hPa SSE 10.1mph /  16.3km/h 14.0mph /  22.5km/h 34% 0.00in /  0mm 0.0 W/m2
05:59 67.6 °F /  19.8 °C 38.3 °F /  3.5 °C 30.17in /  1021.6hPa SSW 4.0mph /  6.4km/h 11.0mph /  17.7km/h 34% 0.00in /  0mm 0.0 W/m2
06:01 67.6 °F /  19.8 °C 38.3 °F /  3.5 °C 30.17in /  1021.6hPa SW 6.0mph /  9.7km/h 15.0mph /  24.1km/h 34% 0.00in /  0mm 0.0 W/m2
06:02 67.6 °F /  19.8 °C 38.3 °F /  3.5 °C 30.17in /  1021.6hPa South 4.0mph /  6.4km/h 15.0mph /  24.1km/h 34% 0.00in /  0mm 0.0 W/m2
06:09 67.5 °F /  19.7 °C 38.1 °F /  3.4 °C 29.70in /  1005.6hPa SSE 6.0mph /  9.7km/h 12.0mph /  19.3km/h 34% 0.00in /  0mm 0.0 W/m2
06:10 67.5 °F /  19.7 °C 38.1 °F /  3.4 °C 30.18in /  1021.9hPa SE 8.1mph /  13km/h 16.0mph /  25.7km/h 34% 0.00in /  0mm 0.0 W/m2
06:12 67.5 °F /  19.7 °C 38.1 °F /  3.4 °C 30.18in /  1021.9hPa SSE 4.9mph /  7.9km/h 13.0mph /  20.9km/h 34% 0.00in /  0mm 0.0 W/m2
06:13 67.5 °F /  19.7 °C 38.1 °F /  3.4 °C 30.18in /  1021.9hPa ESE 8.9mph /  14.3km/h 9.0mph /  14.5km/h 34% 0.00in /  0mm 0.0 W/m2
06:14 67.5 °F /  19.7 °C 38.1 °F /  3.4 °C 30.18in /  1021.9hPa SSE 0.9mph /  1.4km/h 12.0mph /  19.3km/h 34% 0.00in /  0mm 0.0 W/m2
06:15 67.5 °F /  19.7 °C 38.1 °F /  3.4 °C 30.17in /  1021.6hPa SE 2.0mph /  3.2km/h 12.0mph /  19.3km/h 34% 0.00in /  0mm 0.0 W/m2
06:16 67.5 °F /  19.7 °C 38.8 °F /  3.8 °C 30.18in /  1021.9hPa South 12.1mph /  19.5km/h 13.0mph /  20.9km/h 35% 0.00in /  0mm 0.0 W/m2
06:19 67.5 °F /  19.7 °C 38.8 °F /  3.8 °C 30.18in /  1021.9hPa South 10.1mph /  16.3km/h 13.0mph /  20.9km/h 35% 0.00in /  0mm 5.0 W/m2
06:20 67.3 °F /  19.6 °C 38.7 °F /  3.7 °C 30.18in /  1021.9hPa SSW 2.0mph /  3.2km/h 11.0mph /  17.7km/h 35% 0.00in /  0mm 5.0 W/m2
06:22 67.5 °F /  19.7 °C 38.1 °F /  3.4 °C 30.18in /  1021.9hPa South 15.0mph /  24.1km/h 17.0mph /  27.4km/h 34% 0.00in /  0mm 0.0 W/m2
06:24 67.3 °F /  19.6 °C 38.7 °F /  3.7 °C 30.19in /  1022.2hPa South 4.9mph /  7.9km/h 13.0mph /  20.9km/h 35% 0.00in /  0mm 7.0 W/m2
06:29 67.3 °F /  19.6 °C 38.7 °F /  3.7 °C 30.18in /  1021.9hPa SSE 4.0mph /  6.4km/h 12.0mph /  19.3km/h 35% 0.00in /  0mm 9.0 W/m2
06:32 67.1 °F /  19.5 °C 38.5 °F /  3.6 °C 30.18in /  1021.9hPa SSE 8.1mph /  13km/h 15.0mph /  24.1km/h 35% 0.00in /  0mm 9.0 W/m2
06:35 67.1 °F /  19.5 °C 38.5 °F /  3.6 °C 30.19in /  1022.2hPa West 4.0mph /  6.4km/h 10.0mph /  16.1km/h 35% 0.00in /  0mm 11.0 W/m2
06:36 66.9 °F /  19.4 °C 38.3 °F /  3.5 °C 30.18in /  1021.9hPa SSW 8.1mph /  13km/h 14.0mph /  22.5km/h 35% 0.00in /  0mm 11.0 W/m2
06:37 66.9 °F /  19.4 °C 38.3 °F /  3.5 °C 30.18in /  1021.9hPa Calm   14.0mph /  22.5km/h 35% 0.00in /  0mm 11.0 W/m2
06:38 66.9 °F /  19.4 °C 38.3 °F /  3.5 °C 30.19in /  1022.2hPa WSW 2.0mph /  3.2km/h 10.0mph /  16.1km/h 35% 0.00in /  0mm 11.0 W/m2
06:40 66.9 °F /  19.4 °C 38.3 °F /  3.5 °C 30.18in /  1021.9hPa SSE 4.9mph /  7.9km/h 8.0mph /  12.9km/h 35% 0.00in /  0mm 12.0 W/m2
06:41 66.9 °F /  19.4 °C 38.3 °F /  3.5 °C 30.18in /  1021.9hPa South 2.9mph /  4.7km/h 7.0mph /  11.3km/h 35% 0.00in /  0mm 12.0 W/m2
06:43 66.9 °F /  19.4 °C 38.3 °F /  3.5 °C 29.71in /  1006hPa SSW 4.0mph /  6.4km/h 11.0mph /  17.7km/h 35% 0.00in /  0mm 12.0 W/m2
06:44 66.9 °F /  19.4 °C 38.3 °F /  3.5 °C 30.19in /  1022.2hPa SE 6.9mph /  11.1km/h 9.0mph /  14.5km/h 35% 0.00in /  0mm 14.0 W/m2
06:45 66.9 °F /  19.4 °C 38.3 °F /  3.5 °C 30.18in /  1021.9hPa SSW 2.9mph /  4.7km/h 9.0mph /  14.5km/h 35% 0.00in /  0mm 14.0 W/m2
06:49 66.9 °F /  19.4 °C 38.3 °F /  3.5 °C 30.19in /  1022.2hPa ESE 10.1mph /  16.3km/h 10.1mph /  16.3km/h 35% 0.00in /  0mm 14.0 W/m2
06:50 66.9 °F /  19.4 °C 38.3 °F /  3.5 °C 30.19in /  1022.2hPa ESE 4.0mph /  6.4km/h 10.0mph /  16.1km/h 35% 0.00in /  0mm 14.0 W/m2
06:53 66.9 °F /  19.4 °C 38.3 °F /  3.5 °C 30.19in /  1022.2hPa East 4.9mph /  7.9km/h 12.0mph /  19.3km/h 35% 0.00in /  0mm 16.0 W/m2
06:55 66.7 °F /  19.3 °C 39.0 °F /  3.9 °C 30.19in /  1022.2hPa SW 6.0mph /  9.7km/h 16.0mph /  25.7km/h 36% 0.00in /  0mm 16.0 W/m2
06:58 66.7 °F /  19.3 °C 39.0 °F /  3.9 °C 30.19in /  1022.2hPa South 8.9mph /  14.3km/h 10.0mph /  16.1km/h 36% 0.00in /  0mm 18.0 W/m2
06:59 66.7 °F /  19.3 °C 38.3 °F /  3.5 °C 30.19in /  1022.2hPa SE 4.0mph /  6.4km/h 12.0mph /  19.3km/h 35% 0.00in /  0mm 18.0 W/m2
07:03 66.9 °F /  19.4 °C 39.0 °F /  3.9 °C 30.19in /  1022.2hPa SSW 2.0mph /  3.2km/h 13.0mph /  20.9km/h 36% 0.00in /  0mm 19.0 W/m2
07:06 66.9 °F /  19.4 °C 39.0 °F /  3.9 °C 30.19in /  1022.2hPa SE 0.9mph /  1.4km/h 9.0mph /  14.5km/h 36% 0.00in /  0mm 19.0 W/m2
07:08 66.9 °F /  19.4 °C 39.0 °F /  3.9 °C 30.19in /  1022.2hPa SSW 2.9mph /  4.7km/h 12.0mph /  19.3km/h 36% 0.00in /  0mm 19.0 W/m2
07:12 66.9 °F /  19.4 °C 38.3 °F /  3.5 °C 30.19in /  1022.2hPa South 4.0mph /  6.4km/h 8.0mph /  12.9km/h 35% 0.00in /  0mm 21.0 W/m2
07:17 67.3 °F /  19.6 °C 38.7 °F /  3.7 °C 30.19in /  1022.2hPa SE 0.9mph /  1.4km/h 8.0mph /  12.9km/h 35% 0.00in /  0mm 21.0 W/m2
07:19 67.3 °F /  19.6 °C 38.7 °F /  3.7 °C 30.19in /  1022.2hPa SSW 6.9mph /  11.1km/h 12.0mph /  19.3km/h 35% 0.00in /  0mm 23.0 W/m2
07:22 67.5 °F /  19.7 °C 38.8 °F /  3.8 °C 30.19in /  1022.2hPa SSE 4.9mph /  7.9km/h 10.0mph /  16.1km/h 35% 0.00in /  0mm 23.0 W/m2
07:23 67.3 °F /  19.6 °C 38.7 °F /  3.7 °C 30.19in /  1022.2hPa South 4.0mph /  6.4km/h 12.0mph /  19.3km/h 35% 0.00in /  0mm 23.0 W/m2
07:24 67.6 °F /  19.8 °C 39.0 °F /  3.9 °C 30.19in /  1022.2hPa WSW 0.9mph /  1.4km/h 10.0mph /  16.1km/h 35% 0.00in /  0mm 23.0 W/m2
07:27 67.8 °F /  19.9 °C 39.2 °F /  4 °C 30.19in /  1022.2hPa SE 6.9mph /  11.1km/h 13.0mph /  20.9km/h 35% 0.00in /  0mm 25.0 W/m2
07:28 67.8 °F /  19.9 °C 39.2 °F /  4 °C 30.19in /  1022.2hPa SE 8.1mph /  13km/h 10.0mph /  16.1km/h 35% 0.00in /  0mm 25.0 W/m2
07:34 68.4 °F /  20.2 °C 38.8 °F /  3.8 °C 29.72in /  1006.3hPa SSE 12.1mph /  19.5km/h 14.0mph /  22.5km/h 34% 0.00in /  0mm 25.0 W/m2
07:38 68.5 °F /  20.3 °C 39.0 °F /  3.9 °C 30.19in /  1022.2hPa SE 2.0mph /  3.2km/h 11.0mph /  17.7km/h 34% 0.00in /  0mm 26.0 W/m2
07:39 68.5 °F /  20.3 °C 39.0 °F /  3.9 °C 30.19in /  1022.2hPa WSW 2.9mph /  4.7km/h 11.0mph /  17.7km/h 34% 0.00in /  0mm 26.0 W/m2
07:45 69.1 °F /  20.6 °C 39.6 °F /  4.2 °C 30.19in /  1022.2hPa SE 2.0mph /  3.2km/h 8.0mph /  12.9km/h 34% 0.00in /  0mm 74.0 W/m2
07:47 69.1 °F /  20.6 °C 38.8 °F /  3.8 °C 30.20in /  1022.6hPa South 6.9mph /  11.1km/h 9.0mph /  14.5km/h 33% 0.00in /  0mm 40.0 W/m2
07:48 69.1 °F /  20.6 °C 39.6 °F /  4.2 °C 30.20in /  1022.6hPa SE 6.0mph /  9.7km/h 9.0mph /  14.5km/h 34% 0.00in /  0mm 98.0 W/m2
07:49 68.9 °F /  20.5 °C 39.4 °F /  4.1 °C 30.19in /  1022.2hPa SE 2.9mph /  4.7km/h 7.0mph /  11.3km/h 34% 0.00in /  0mm 35.0 W/m2
07:54 69.3 °F /  20.7 °C 39.7 °F /  4.3 °C 30.20in /  1022.6hPa South 4.0mph /  6.4km/h 10.0mph /  16.1km/h 34% 0.00in /  0mm 151.0 W/m2
07:56 69.6 °F /  20.9 °C 39.2 °F /  4 °C 30.20in /  1022.6hPa East 4.9mph /  7.9km/h 11.0mph /  17.7km/h 33% 0.00in /  0mm 316.0 W/m2
07:57 69.8 °F /  21 °C 38.7 °F /  3.7 °C 30.20in /  1022.6hPa South 4.9mph /  7.9km/h 11.0mph /  17.7km/h 32% 0.00in /  0mm 341.0 W/m2
07:58 70.0 °F /  21.1 °C 38.8 °F /  3.8 °C 30.20in /  1022.6hPa SE 6.0mph /  9.7km/h 11.0mph /  17.7km/h 32% 0.00in /  0mm 359.0 W/m2
07:59 70.0 °F /  21.1 °C 38.8 °F /  3.8 °C 30.20in /  1022.6hPa SSE 6.0mph /  9.7km/h 12.0mph /  19.3km/h 32% 0.00in /  0mm 371.0 W/m2
08:00 70.2 °F /  21.2 °C 38.8 °F /  3.8 °C 30.20in /  1022.6hPa SE 4.9mph /  7.9km/h 8.0mph /  12.9km/h 32% 0.00in /  0mm 374.0 W/m2
08:02 70.3 °F /  21.3 °C 39.0 °F /  3.9 °C 30.20in /  1022.6hPa WSW 4.0mph /  6.4km/h 14.0mph /  22.5km/h 32% 0.00in /  0mm 381.0 W/m2
08:03 70.5 °F /  21.4 °C 39.2 °F /  4 °C 30.20in /  1022.6hPa ESE 6.9mph /  11.1km/h 10.0mph /  16.1km/h 32% 0.00in /  0mm 388.0 W/m2
08:04 70.5 °F /  21.4 °C 39.2 °F /  4 °C 30.20in /  1022.6hPa SSE 2.9mph /  4.7km/h 10.0mph /  16.1km/h 32% 0.00in /  0mm 390.0 W/m2
08:06 70.9 °F /  21.6 °C 39.6 °F /  4.2 °C 30.20in /  1022.6hPa ESE 2.9mph /  4.7km/h 9.0mph /  14.5km/h 32% 0.00in /  0mm 397.0 W/m2
08:08 71.1 °F /  21.7 °C 38.8 °F /  3.8 °C 30.20in /  1022.6hPa SSE 8.1mph /  13km/h 14.0mph /  22.5km/h 31% 0.00in /  0mm 410.0 W/m2
08:10 71.2 °F /  21.8 °C 39.0 °F /  3.9 °C 30.20in /  1022.6hPa SSE 6.9mph /  11.1km/h 13.0mph /  20.9km/h 31% 0.00in /  0mm 417.0 W/m2
08:11 71.2 °F /  21.8 °C 39.0 °F /  3.9 °C 30.20in /  1022.6hPa SSE 12.1mph /  19.5km/h 12.1mph /  19.5km/h 31% 0.00in /  0mm 418.0 W/m2
08:13 71.4 °F /  21.9 °C 39.2 °F /  4 °C 30.20in /  1022.6hPa SSE 8.1mph /  13km/h 14.0mph /  22.5km/h 31% 0.00in /  0mm 429.0 W/m2
08:19 72.0 °F /  22.2 °C 38.8 °F /  3.8 °C 30.20in /  1022.6hPa SE 6.0mph /  9.7km/h 18.0mph /  29km/h 30% 0.00in /  0mm 454.0 W/m2
08:20 72.0 °F /  22.2 °C 38.8 °F /  3.8 °C 30.20in /  1022.6hPa SE 10.1mph /  16.3km/h 18.0mph /  29km/h 30% 0.00in /  0mm 455.0 W/m2
08:22 72.0 °F /  22.2 °C 38.8 °F /  3.8 °C 30.20in /  1022.6hPa South 8.9mph /  14.3km/h 12.0mph /  19.3km/h 30% 0.00in /  0mm 459.0 W/m2
08:23 72.0 °F /  22.2 °C 38.8 °F /  3.8 °C 30.20in /  1022.6hPa SE 2.0mph /  3.2km/h 12.0mph /  19.3km/h 30% 0.00in /  0mm 464.0 W/m2
08:24 72.1 °F /  22.3 °C 39.0 °F /  3.9 °C 30.20in /  1022.6hPa SSW 2.9mph /  4.7km/h 10.0mph /  16.1km/h 30% 0.00in /  0mm 468.0 W/m2
08:25 72.1 °F /  22.3 °C 39.0 °F /  3.9 °C 30.20in /  1022.6hPa ESE 2.0mph /  3.2km/h 6.0mph /  9.7km/h 30% 0.00in /  0mm 468.0 W/m2
08:26 72.1 °F /  22.3 °C 39.0 °F /  3.9 °C 30.21in /  1022.9hPa South 8.9mph /  14.3km/h 10.0mph /  16.1km/h 30% 0.00in /  0mm 475.0 W/m2
08:28 72.3 °F /  22.4 °C 39.2 °F /  4 °C 30.20in /  1022.6hPa SE 2.0mph /  3.2km/h 14.0mph /  22.5km/h 30% 0.00in /  0mm 483.0 W/m2
08:30 72.5 °F /  22.5 °C 39.4 °F /  4.1 °C 30.21in /  1022.9hPa ESE 8.1mph /  13km/h 13.0mph /  20.9km/h 30% 0.00in /  0mm 494.0 W/m2
08:32 72.7 °F /  22.6 °C 38.7 °F /  3.7 °C 30.21in /  1022.9hPa ESE 8.1mph /  13km/h 13.0mph /  20.9km/h 29% 0.00in /  0mm 501.0 W/m2
08:34 72.7 °F /  22.6 °C 38.7 °F /  3.7 °C 30.21in /  1022.9hPa SE 6.9mph /  11.1km/h 11.0mph /  17.7km/h 29% 0.00in /  0mm 508.0 W/m2
08:35 72.9 °F /  22.7 °C 38.7 °F /  3.7 °C 30.21in /  1022.9hPa ESE 8.1mph /  13km/h 11.0mph /  17.7km/h 29% 0.00in /  0mm 512.0 W/m2
08:37 72.9 °F /  22.7 °C 38.7 °F /  3.7 °C 29.74in /  1007hPa SE 11.0mph /  17.7km/h 17.0mph /  27.4km/h 29% 0.00in /  0mm 522.0 W/m2
08:40 73.0 °F /  22.8 °C 38.8 °F /  3.8 °C 30.21in /  1022.9hPa SE 6.0mph /  9.7km/h 18.0mph /  29km/h 29% 0.00in /  0mm 533.0 W/m2
08:42 73.0 °F /  22.8 °C 38.8 °F /  3.8 °C 30.21in /  1022.9hPa SE 10.1mph /  16.3km/h 11.0mph /  17.7km/h 29% 0.00in /  0mm 538.0 W/m2
08:43 73.0 °F /  22.8 °C 38.8 °F /  3.8 °C 30.22in /  1023.2hPa SE 6.0mph /  9.7km/h 16.0mph /  25.7km/h 29% 0.00in /  0mm 541.0 W/m2
08:45 73.0 °F /  22.8 °C 38.8 °F /  3.8 °C 29.74in /  1007hPa SE 6.0mph /  9.7km/h 18.0mph /  29km/h 29% 0.00in /  0mm 533.0 W/m2
08:46 73.2 °F /  22.9 °C 39.0 °F /  3.9 °C 30.21in /  1022.9hPa South 6.9mph /  11.1km/h 19.0mph /  30.6km/h 29% 0.00in /  0mm 554.0 W/m2
08:50 73.6 °F /  23.1 °C 38.5 °F /  3.6 °C 29.74in /  1007hPa ESE 6.0mph /  9.7km/h 14.0mph /  22.5km/h 28% 0.00in /  0mm 568.0 W/m2
08:52 73.8 °F /  23.2 °C 38.7 °F /  3.7 °C 30.21in /  1022.9hPa SE 14.1mph /  22.7km/h 14.1mph /  22.7km/h 28% 0.00in /  0mm 578.0 W/m2
08:56 73.9 °F /  23.3 °C 38.8 °F /  3.8 °C 30.21in /  1022.9hPa ESE 8.1mph /  13km/h 10.0mph /  16.1km/h 28% 0.00in /  0mm 594.0 W/m2
08:57 73.9 °F /  23.3 °C 37.8 °F /  3.2 °C 30.21in /  1022.9hPa SSE 6.0mph /  9.7km/h 11.0mph /  17.7km/h 27% 0.00in /  0mm 596.0 W/m2
08:59 74.1 °F /  23.4 °C 39.0 °F /  3.9 °C 30.21in /  1022.9hPa SSE 8.9mph /  14.3km/h 9.0mph /  14.5km/h 28% 0.00in /  0mm 603.0 W/m2
09:02 74.5 °F /  23.6 °C 39.2 °F /  4 °C 30.21in /  1022.9hPa SE 8.9mph /  14.3km/h 9.0mph /  14.5km/h 28% 0.00in /  0mm 615.0 W/m2
09:04 74.7 °F /  23.7 °C 38.5 °F /  3.6 °C 30.21in /  1022.9hPa SSE 8.9mph /  14.3km/h 11.0mph /  17.7km/h 27% 0.00in /  0mm 621.0 W/m2
09:06 75.0 °F /  23.9 °C 38.8 °F /  3.8 °C 30.21in /  1022.9hPa ESE 6.0mph /  9.7km/h 12.0mph /  19.3km/h 27% 0.00in /  0mm 629.0 W/m2
09:11 75.4 °F /  24.1 °C 38.1 °F /  3.4 °C 30.21in /  1022.9hPa SE 10.1mph /  16.3km/h 12.0mph /  19.3km/h 26% 0.00in /  0mm 647.0 W/m2
09:15 75.4 °F /  24.1 °C 38.1 °F /  3.4 °C 30.21in /  1022.9hPa South 6.0mph /  9.7km/h 12.0mph /  19.3km/h 26% 0.00in /  0mm 642.0 W/m2
09:17 75.9 °F /  24.4 °C 38.7 °F /  3.7 °C 30.21in /  1022.9hPa SSE 4.0mph /  6.4km/h 12.0mph /  19.3km/h 26% 0.00in /  0mm 664.0 W/m2
09:20 76.3 °F /  24.6 °C 38.8 °F /  3.8 °C 30.21in /  1022.9hPa ESE 2.9mph /  4.7km/h 9.0mph /  14.5km/h 26% 0.00in /  0mm 675.0 W/m2
09:21 76.3 °F /  24.6 °C 38.8 °F /  3.8 °C 30.21in /  1022.9hPa South 6.9mph /  11.1km/h 9.0mph /  14.5km/h 26% 0.00in /  0mm 679.0 W/m2
09:23 76.5 °F /  24.7 °C 37.9 °F /  3.3 °C 30.21in /  1022.9hPa South 11.0mph /  17.7km/h 12.0mph /  19.3km/h 25% 0.00in /  0mm 689.0 W/m2
09:25 76.6 °F /  24.8 °C 38.1 °F /  3.4 °C 30.21in /  1022.9hPa ESE 11.0mph /  17.7km/h 13.0mph /  20.9km/h 25% 0.00in /  0mm 693.0 W/m2
09:26 76.6 °F /  24.8 °C 38.1 °F /  3.4 °C 30.21in /  1022.9hPa SSE 4.0mph /  6.4km/h 13.0mph /  20.9km/h 25% 0.00in /  0mm 696.0 W/m2
09:28 76.6 °F /  24.8 °C 38.1 °F /  3.4 °C 30.21in /  1022.9hPa SE 6.0mph /  9.7km/h 7.0mph /  11.3km/h 25% 0.00in /  0mm 705.0 W/m2
09:30 76.6 °F /  24.8 °C 38.1 °F /  3.4 °C 29.74in /  1007hPa SE 8.1mph /  13km/h 15.0mph /  24.1km/h 25% 0.00in /  0mm 708.0 W/m2
09:32 76.8 °F /  24.9 °C 38.3 °F /  3.5 °C 30.21in /  1022.9hPa South 2.9mph /  4.7km/h 11.0mph /  17.7km/h 25% 0.00in /  0mm 717.0 W/m2
09:35 77.2 °F /  25.1 °C 38.7 °F /  3.7 °C 30.21in /  1022.9hPa South 4.9mph /  7.9km/h 10.0mph /  16.1km/h 25% 0.00in /  0mm 726.0 W/m2
09:39 77.5 °F /  25.3 °C 39.0 °F /  3.9 °C 30.21in /  1022.9hPa SE 6.0mph /  9.7km/h 10.0mph /  16.1km/h 25% 0.00in /  0mm 740.0 W/m2
09:40 77.5 °F /  25.3 °C 39.0 °F /  3.9 °C 30.21in /  1022.9hPa SE 4.9mph /  7.9km/h 10.0mph /  16.1km/h 25% 0.00in /  0mm 744.0 W/m2
09:41 77.2 °F /  25.1 °C 38.7 °F /  3.7 °C 30.21in /  1022.9hPa SE 4.0mph /  6.4km/h 10.0mph /  16.1km/h 25% 0.00in /  0mm 731.0 W/m2
09:43 77.7 °F /  25.4 °C 39.0 °F /  3.9 °C 30.21in /  1022.9hPa Calm   8.0mph /  12.9km/h 25% 0.00in /  0mm 752.0 W/m2
09:46 78.1 °F /  25.6 °C 39.4 °F /  4.1 °C 30.21in /  1022.9hPa SSE 2.9mph /  4.7km/h 8.0mph /  12.9km/h 25% 0.00in /  0mm 761.0 W/m2
09:50 78.6 °F /  25.9 °C 38.8 °F /  3.8 °C 30.21in /  1022.9hPa South 4.0mph /  6.4km/h 11.0mph /  17.7km/h 24% 0.00in /  0mm 777.0 W/m2
09:52 78.8 °F /  26 °C 39.0 °F /  3.9 °C 30.21in /  1022.9hPa SE 4.0mph /  6.4km/h 10.0mph /  16.1km/h 24% 0.00in /  0mm 780.0 W/m2
09:55 79.0 °F /  26.1 °C 39.2 °F /  4 °C 30.21in /  1022.9hPa SE 2.9mph /  4.7km/h 11.0mph /  17.7km/h 24% 0.00in /  0mm 795.0 W/m2
09:56 79.2 °F /  26.2 °C 39.2 °F /  4 °C 30.21in /  1022.9hPa ESE 6.9mph /  11.1km/h 11.0mph /  17.7km/h 24% 0.00in /  0mm 793.0 W/m2
09:58 79.2 °F /  26.2 °C 39.2 °F /  4 °C 30.21in /  1022.9hPa South 4.0mph /  6.4km/h 10.0mph /  16.1km/h 24% 0.00in /  0mm 800.0 W/m2
10:02 79.3 °F /  26.3 °C 38.3 °F /  3.5 °C 30.22in /  1023.2hPa South 6.0mph /  9.7km/h 14.0mph /  22.5km/h 23% 0.00in /  0mm 812.0 W/m2
10:04 79.5 °F /  26.4 °C 38.5 °F /  3.6 °C 30.21in /  1022.9hPa ESE 4.0mph /  6.4km/h 8.0mph /  12.9km/h 23% 0.00in /  0mm 821.0 W/m2
10:05 79.5 °F /  26.4 °C 38.5 °F /  3.6 °C 30.21in /  1022.9hPa SE 4.0mph /  6.4km/h 8.0mph /  12.9km/h 23% 0.00in /  0mm 823.0 W/m2
10:09 79.7 °F /  26.5 °C 39.7 °F /  4.3 °C 30.21in /  1022.9hPa ESE 15.0mph /  24.1km/h 15.0mph /  24.1km/h 24% 0.00in /  0mm 830.0 W/m2
10:10 79.7 °F /  26.5 °C 38.7 °F /  3.7 °C 30.21in /  1022.9hPa ESE 4.9mph /  7.9km/h 15.0mph /  24.1km/h 23% 0.00in /  0mm 835.0 W/m2
10:11 79.9 °F /  26.6 °C 38.8 °F /  3.8 °C 30.21in /  1022.9hPa SSE 2.0mph /  3.2km/h 11.0mph /  17.7km/h 23% 0.00in /  0mm 837.0 W/m2
10:12 79.9 °F /  26.6 °C 38.8 °F /  3.8 °C 30.21in /  1022.9hPa SE 6.9mph /  11.1km/h 8.0mph /  12.9km/h 23% 0.00in /  0mm 837.0 W/m2
10:15 80.1 °F /  26.7 °C 38.8 °F /  3.8 °C 30.21in /  1022.9hPa SSE 4.0mph /  6.4km/h 8.0mph /  12.9km/h 23% 0.00in /  0mm 847.0 W/m2
10:21 80.8 °F /  27.1 °C 38.5 °F /  3.6 °C 30.21in /  1022.9hPa South 4.0mph /  6.4km/h 9.0mph /  14.5km/h 22% 0.00in /  0mm 867.0 W/m2
10:23 81.0 °F /  27.2 °C 38.5 °F /  3.6 °C 30.21in /  1022.9hPa South 6.9mph /  11.1km/h 10.0mph /  16.1km/h 22% 0.00in /  0mm 868.0 W/m2
10:24 81.1 °F /  27.3 °C 38.7 °F /  3.7 °C 30.21in /  1022.9hPa SE 4.9mph /  7.9km/h 12.0mph /  19.3km/h 22% 0.00in /  0mm 874.0 W/m2
10:27 81.3 °F /  27.4 °C 38.8 °F /  3.8 °C 30.21in /  1022.9hPa ESE 6.0mph /  9.7km/h 7.0mph /  11.3km/h 22% 0.00in /  0mm 881.0 W/m2
10:31 81.7 °F /  27.6 °C 39.2 °F /  4 °C 30.21in /  1022.9hPa SE 11.0mph /  17.7km/h 14.0mph /  22.5km/h 22% 0.00in /  0mm 893.0 W/m2
10:34 81.5 °F /  27.5 °C 39.0 °F /  3.9 °C 30.21in /  1022.9hPa SSE 2.9mph /  4.7km/h 12.0mph /  19.3km/h 22% 0.00in /  0mm 900.0 W/m2
10:35 81.7 °F /  27.6 °C 39.2 °F /  4 °C 30.20in /  1022.6hPa ESE 6.0mph /  9.7km/h 12.0mph /  19.3km/h 22% 0.00in /  0mm 900.0 W/m2
10:36 81.7 °F /  27.6 °C 39.2 °F /  4 °C 30.21in /  1022.9hPa SSE 8.9mph /  14.3km/h 13.0mph /  20.9km/h 22% 0.00in /  0mm 905.0 W/m2
10:40 82.0 °F /  27.8 °C 38.3 °F /  3.5 °C 29.74in /  1007hPa East 0.9mph /  1.4km/h 8.0mph /  12.9km/h 21% 0.00in /  0mm 912.0 W/m2
10:42 82.2 °F /  27.9 °C 38.5 °F /  3.6 °C 30.21in /  1022.9hPa NNE 2.9mph /  4.7km/h 6.0mph /  9.7km/h 21% 0.00in /  0mm 918.0 W/m2
10:45 82.6 °F /  28.1 °C 37.4 °F /  3 °C 30.21in /  1022.9hPa SE 4.0mph /  6.4km/h 9.0mph /  14.5km/h 20% 0.00in /  0mm 928.0 W/m2
10:46 82.6 °F /  28.1 °C 38.7 °F /  3.7 °C 30.21in /  1022.9hPa SSW 2.0mph /  3.2km/h 8.0mph /  12.9km/h 21% 0.00in /  0mm 932.0 W/m2
10:50 82.9 °F /  28.3 °C 39.0 °F /  3.9 °C 30.21in /  1022.9hPa South 8.9mph /  14.3km/h 11.0mph /  17.7km/h 21% 0.00in /  0mm 942.0 W/m2
10:51 83.1 °F /  28.4 °C 37.9 °F /  3.3 °C 30.21in /  1022.9hPa SE 8.9mph /  14.3km/h 11.0mph /  17.7km/h 20% 0.00in /  0mm 940.0 W/m2
10:52 82.9 °F /  28.3 °C 39.0 °F /  3.9 °C 30.21in /  1022.9hPa SE 2.9mph /  4.7km/h 11.0mph /  17.7km/h 21% 0.00in /  0mm 942.0 W/m2
10:53 82.9 °F /  28.3 °C 37.8 °F /  3.2 °C 30.20in /  1022.6hPa SSE 2.0mph /  3.2km/h 8.0mph /  12.9km/h 20% 0.00in /  0mm 946.0 W/m2
10:56 82.9 °F /  28.3 °C 39.0 °F /  3.9 °C 30.20in /  1022.6hPa ESE 2.9mph /  4.7km/h 12.0mph /  19.3km/h 21% 0.00in /  0mm 949.0 W/m2
10:57 83.1 °F /  28.4 °C 39.2 °F /  4 °C 30.20in /  1022.6hPa ESE 6.9mph /  11.1km/h 12.0mph /  19.3km/h 21% 0.00in /  0mm 954.0 W/m2
10:58 83.1 °F /  28.4 °C 37.9 °F /  3.3 °C 30.20in /  1022.6hPa ESE 10.1mph /  16.3km/h 12.0mph /  19.3km/h 20% 0.00in /  0mm 954.0 W/m2
10:59 83.1 °F /  28.4 °C 39.2 °F /  4 °C 30.20in /  1022.6hPa South 4.9mph /  7.9km/h 12.0mph /  19.3km/h 21% 0.00in /  0mm 956.0 W/m2
11:02 83.5 °F /  28.6 °C 38.1 °F /  3.4 °C 30.20in /  1022.6hPa East 6.9mph /  11.1km/h 11.0mph /  17.7km/h 20% 0.00in /  0mm 960.0 W/m2
11:05 83.7 °F /  28.7 °C 38.3 °F /  3.5 °C 29.73in /  1006.7hPa ENE 2.0mph /  3.2km/h 12.0mph /  19.3km/h 20% 0.00in /  0mm 969.0 W/m2
11:08 83.8 °F /  28.8 °C 38.5 °F /  3.6 °C 30.20in /  1022.6hPa East 2.9mph /  4.7km/h 7.0mph /  11.3km/h 20% 0.00in /  0mm 974.0 W/m2
11:12 84.4 °F /  29.1 °C 40.1 °F /  4.5 °C 30.20in /  1022.6hPa Calm   12.0mph /  19.3km/h 21% 0.00in /  0mm 983.0 W/m2
11:13 84.6 °F /  29.2 °C 39.0 °F /  3.9 °C 30.20in /  1022.6hPa SE 6.0mph /  9.7km/h 8.0mph /  12.9km/h 20% 0.00in /  0mm 986.0 W/m2
11:15 84.7 °F /  29.3 °C 39.2 °F /  4 °C 30.20in /  1022.6hPa East 2.0mph /  3.2km/h 13.0mph /  20.9km/h 20% 0.00in /  0mm 991.0 W/m2
11:17 84.7 °F /  29.3 °C 37.9 °F /  3.3 °C 30.20in /  1022.6hPa SSE 8.9mph /  14.3km/h 11.0mph /  17.7km/h 19% 0.00in /  0mm 990.0 W/m2
11:18 84.7 °F /  29.3 °C 37.9 °F /  3.3 °C 30.20in /  1022.6hPa NNE 2.0mph /  3.2km/h 11.0mph /  17.7km/h 19% 0.00in /  0mm 995.0 W/m2
11:20 84.7 °F /  29.3 °C 39.2 °F /  4 °C 30.20in /  1022.6hPa East 8.9mph /  14.3km/h 10.0mph /  16.1km/h 20% 0.00in /  0mm 998.0 W/m2
11:26 85.1 °F /  29.5 °C 38.1 °F /  3.4 °C 30.20in /  1022.6hPa NNE 4.0mph /  6.4km/h 7.0mph /  11.3km/h 19% 0.00in /  0mm 1011.0 W/m2
11:27 85.3 °F /  29.6 °C 38.3 °F /  3.5 °C 30.19in /  1022.2hPa ESE 6.0mph /  9.7km/h 9.0mph /  14.5km/h 19% 0.00in /  0mm 1009.0 W/m2
11:30 85.3 °F /  29.6 °C 38.3 °F /  3.5 °C 30.20in /  1022.6hPa East 2.9mph /  4.7km/h 9.0mph /  14.5km/h 19% 0.00in /  0mm 1018.0 W/m2
11:31 85.5 °F /  29.7 °C 39.7 °F /  4.3 °C 30.19in /  1022.2hPa NE 4.9mph /  7.9km/h 9.0mph /  14.5km/h 20% 0.00in /  0mm 1018.0 W/m2
11:32 85.5 °F /  29.7 °C 38.5 °F /  3.6 °C 30.20in /  1022.6hPa NE 4.9mph /  7.9km/h 10.0mph /  16.1km/h 19% 0.00in /  0mm 1016.0 W/m2
11:36 85.6 °F /  29.8 °C 38.7 °F /  3.7 °C 30.20in /  1022.6hPa East 4.9mph /  7.9km/h 9.0mph /  14.5km/h 19% 0.00in /  0mm 1025.0 W/m2
11:37 85.6 °F /  29.8 °C 38.7 °F /  3.7 °C 30.20in /  1022.6hPa ENE 4.0mph /  6.4km/h 9.0mph /  14.5km/h 19% 0.00in /  0mm 1023.0 W/m2
11:38 85.8 °F /  29.9 °C 38.8 °F /  3.8 °C 30.20in /  1022.6hPa Calm   9.0mph /  14.5km/h 19% 0.00in /  0mm 1025.0 W/m2
11:41 86.2 °F /  30.1 °C 39.0 °F /  3.9 °C 30.20in /  1022.6hPa East 2.9mph /  4.7km/h 9.0mph /  14.5km/h 19% 0.00in /  0mm 1028.0 W/m2
11:43 86.4 °F /  30.2 °C 39.2 °F /  4 °C 30.19in /  1022.2hPa NE 4.0mph /  6.4km/h 8.0mph /  12.9km/h 19% 0.00in /  0mm 1032.0 W/m2
11:45 86.4 °F /  30.2 °C 37.9 °F /  3.3 °C 30.19in /  1022.2hPa NE 4.9mph /  7.9km/h 10.0mph /  16.1km/h 18% 0.00in /  0mm 1035.0 W/m2
11:46 86.5 °F /  30.3 °C 37.9 °F /  3.3 °C 30.20in /  1022.6hPa North 4.9mph /  7.9km/h 7.0mph /  11.3km/h 18% 0.00in /  0mm 1035.0 W/m2
11:49 86.5 °F /  30.3 °C 36.5 °F /  2.5 °C 30.19in /  1022.2hPa NE 0.9mph /  1.4km/h 7.0mph /  11.3km/h 17% 0.00in /  0mm 1037.0 W/m2
11:54 86.7 °F /  30.4 °C 38.1 °F /  3.4 °C 30.19in /  1022.2hPa NNE 2.0mph /  3.2km/h 9.0mph /  14.5km/h 18% 0.00in /  0mm 1046.0 W/m2
11:59 87.4 °F /  30.8 °C 38.7 °F /  3.7 °C 29.72in /  1006.3hPa ESE 0.9mph /  1.4km/h 9.0mph /  14.5km/h 18% 0.00in /  0mm 1049.0 W/m2
12:00 87.4 °F /  30.8 °C 38.7 °F /  3.7 °C 30.19in /  1022.2hPa NNE 2.0mph /  3.2km/h 7.0mph /  11.3km/h 18% 0.00in /  0mm 1048.0 W/m2
12:03 87.6 °F /  30.9 °C 38.8 °F /  3.8 °C 30.19in /  1022.2hPa Calm   6.0mph /  9.7km/h 18% 0.00in /  0mm 1053.0 W/m2
12:05 88.0 °F /  31.1 °C 37.8 °F /  3.2 °C 30.19in /  1022.2hPa SSE 4.0mph /  6.4km/h 14.0mph /  22.5km/h 17% 0.00in /  0mm 1056.0 W/m2
12:12 88.2 °F /  31.2 °C 37.9 °F /  3.3 °C 30.19in /  1022.2hPa Calm   9.0mph /  14.5km/h 17% 0.00in /  0mm 1060.0 W/m2
12:14 88.2 °F /  31.2 °C 39.4 °F /  4.1 °C 30.19in /  1022.2hPa SSE 4.9mph /  7.9km/h 6.0mph /  9.7km/h 18% 0.00in /  0mm 1056.0 W/m2
12:16 88.2 °F /  31.2 °C 37.9 °F /  3.3 °C 30.19in /  1022.2hPa SSE 2.0mph /  3.2km/h 9.0mph /  14.5km/h 17% 0.00in /  0mm 1063.0 W/m2
12:17 88.2 °F /  31.2 °C 37.9 °F /  3.3 °C 30.18in /  1021.9hPa East 4.0mph /  6.4km/h 6.0mph /  9.7km/h 17% 0.00in /  0mm 1063.0 W/m2
12:18 88.2 °F /  31.2 °C 37.9 °F /  3.3 °C 30.19in /  1022.2hPa NNW 2.9mph /  4.7km/h 8.0mph /  12.9km/h 17% 0.00in /  0mm 1063.0 W/m2
12:19 88.3 °F /  31.3 °C 37.9 °F /  3.3 °C 30.18in /  1021.9hPa NNW 2.0mph /  3.2km/h 8.0mph /  12.9km/h 17% 0.00in /  0mm 1065.0 W/m2
12:21 88.5 °F /  31.4 °C 36.7 °F /  2.6 °C 30.18in /  1021.9hPa East 2.0mph /  3.2km/h 6.0mph /  9.7km/h 16% 0.00in /  0mm 1065.0 W/m2
12:26 88.9 °F /  31.6 °C 36.9 °F /  2.7 °C 30.18in /  1021.9hPa ENE 4.0mph /  6.4km/h 5.0mph /  8km/h 16% 0.00in /  0mm 1069.0 W/m2
12:30 88.9 °F /  31.6 °C 38.5 °F /  3.6 °C 30.18in /  1021.9hPa SE 6.0mph /  9.7km/h 9.0mph /  14.5km/h 17% 0.00in /  0mm 1069.0 W/m2
12:34 88.9 °F /  31.6 °C 38.5 °F /  3.6 °C 30.18in /  1021.9hPa Calm   2.0mph /  3.2km/h 17% 0.00in /  0mm 1074.0 W/m2
12:35 88.9 °F /  31.6 °C 38.5 °F /  3.6 °C 30.18in /  1021.9hPa Calm   2.0mph /  3.2km/h 17% 0.00in /  0mm 1074.0 W/m2
12:36 88.9 °F /  31.6 °C 38.5 °F /  3.6 °C 30.18in /  1021.9hPa SSW 2.9mph /  4.7km/h 3.0mph /  4.8km/h 17% 0.00in /  0mm 1074.0 W/m2
12:38 88.7 °F /  31.5 °C 38.3 °F /  3.5 °C 30.17in /  1021.6hPa WSW 0.9mph /  1.4km/h 3.0mph /  4.8km/h 17% 0.00in /  0mm 1074.0 W/m2
12:39 88.7 °F /  31.5 °C 38.3 °F /  3.5 °C 30.17in /  1021.6hPa NW 2.9mph /  4.7km/h 3.0mph /  4.8km/h 17% 0.00in /  0mm 1074.0 W/m2
12:40 88.7 °F /  31.5 °C 38.3 °F /  3.5 °C 30.18in /  1021.9hPa NW 2.0mph /  3.2km/h 4.0mph /  6.4km/h 17% 0.00in /  0mm 1072.0 W/m2
12:44 88.9 °F /  31.6 °C 38.5 °F /  3.6 °C 30.17in /  1021.6hPa NNE 2.9mph /  4.7km/h 4.0mph /  6.4km/h 17% 0.00in /  0mm 1074.0 W/m2
12:47 88.9 °F /  31.6 °C 39.9 °F /  4.4 °C 30.17in /  1021.6hPa East 0.9mph /  1.4km/h 3.0mph /  4.8km/h 18% 0.00in /  0mm 1076.0 W/m2
12:48 88.9 °F /  31.6 °C 38.5 °F /  3.6 °C 30.17in /  1021.6hPa Calm   4.0mph /  6.4km/h 17% 0.00in /  0mm 1076.0 W/m2
12:49 88.9 °F /  31.6 °C 38.5 °F /  3.6 °C 30.17in /  1021.6hPa NNE 4.9mph /  7.9km/h 7.0mph /  11.3km/h 17% 0.00in /  0mm 1071.0 W/m2
12:50 88.9 °F /  31.6 °C 36.9 °F /  2.7 °C 30.17in /  1021.6hPa North 2.0mph /  3.2km/h 7.0mph /  11.3km/h 16% 0.00in /  0mm 1078.0 W/m2
12:52 89.2 °F /  31.8 °C 38.7 °F /  3.7 °C 30.17in /  1021.6hPa NNE 0.9mph /  1.4km/h 7.0mph /  11.3km/h 17% 0.00in /  0mm 1072.0 W/m2
12:55 89.1 °F /  31.7 °C 38.7 °F /  3.7 °C 30.17in /  1021.6hPa NNE 4.9mph /  7.9km/h 7.0mph /  11.3km/h 17% 0.00in /  0mm 1072.0 W/m2
12:58 90.0 °F /  32.2 °C 37.8 °F /  3.2 °C 30.17in /  1021.6hPa SE 0.9mph /  1.4km/h 8.0mph /  12.9km/h 16% 0.00in /  0mm 1065.0 W/m2
12:59 90.0 °F /  32.2 °C 37.8 °F /  3.2 °C 30.17in /  1021.6hPa SSE 4.0mph /  6.4km/h 4.0mph /  6.4km/h 16% 0.00in /  0mm 1067.0 W/m2
13:00 89.8 °F /  32.1 °C 39.2 °F /  4 °C 29.70in /  1005.6hPa SE 2.9mph /  4.7km/h 7.0mph /  11.3km/h 17% 0.00in /  0mm 1067.0 W/m2
13:01 90.1 °F /  32.3 °C 37.9 °F /  3.3 °C 30.17in /  1021.6hPa SSE 2.0mph /  3.2km/h 4.0mph /  6.4km/h 16% 0.00in /  0mm 1071.0 W/m2
13:02 90.1 °F /  32.3 °C 37.9 °F /  3.3 °C 30.17in /  1021.6hPa SSW 4.9mph /  7.9km/h 6.0mph /  9.7km/h 16% 0.00in /  0mm 1067.0 W/m2
13:06 90.0 °F /  32.2 °C 37.8 °F /  3.2 °C 30.17in /  1021.6hPa SSW 2.9mph /  4.7km/h 5.0mph /  8km/h 16% 0.00in /  0mm 1072.0 W/m2
13:10 89.8 °F /  32.1 °C 37.6 °F /  3.1 °C 30.16in /  1021.2hPa West 8.1mph /  13km/h 8.1mph /  13km/h 16% 0.00in /  0mm 1069.0 W/m2
13:11 89.8 °F /  32.1 °C 37.6 °F /  3.1 °C 30.16in /  1021.2hPa West 2.0mph /  3.2km/h 8.0mph /  12.9km/h 16% 0.00in /  0mm 1071.0 W/m2
13:13 89.8 °F /  32.1 °C 37.6 °F /  3.1 °C 30.16in /  1021.2hPa WNW 2.0mph /  3.2km/h 6.0mph /  9.7km/h 16% 0.00in /  0mm 1065.0 W/m2
13:14 89.8 °F /  32.1 °C 37.6 °F /  3.1 °C 30.16in /  1021.2hPa Calm   3.0mph /  4.8km/h 16% 0.00in /  0mm 1062.0 W/m2
13:17 89.8 °F /  32.1 °C 37.6 °F /  3.1 °C 30.16in /  1021.2hPa NW 0.9mph /  1.4km/h 4.0mph /  6.4km/h 16% 0.00in /  0mm 1056.0 W/m2
13:19 89.8 °F /  32.1 °C 39.2 °F /  4 °C 30.16in /  1021.2hPa ESE 8.1mph /  13km/h 10.0mph /  16.1km/h 17% 0.00in /  0mm 1053.0 W/m2
13:20 89.8 °F /  32.1 °C 37.6 °F /  3.1 °C 30.16in /  1021.2hPa North 2.0mph /  3.2km/h 2.0mph /  3.2km/h 16% 0.00in /  0mm 1062.0 W/m2
13:23 90.1 °F /  32.3 °C 37.9 °F /  3.3 °C 30.16in /  1021.2hPa SE 4.9mph /  7.9km/h 10.0mph /  16.1km/h 16% 0.00in /  0mm 1053.0 W/m2
13:24 90.1 °F /  32.3 °C 37.9 °F /  3.3 °C 30.16in /  1021.2hPa East 0.9mph /  1.4km/h 7.0mph /  11.3km/h 16% 0.00in /  0mm 1058.0 W/m2
13:25 90.3 °F /  32.4 °C 38.1 °F /  3.4 °C 29.69in /  1005.3hPa NNE 2.9mph /  4.7km/h 7.0mph /  11.3km/h 16% 0.00in /  0mm 1060.0 W/m2
13:26 90.3 °F /  32.4 °C 36.3 °F /  2.4 °C 30.15in /  1020.9hPa NE 4.9mph /  7.9km/h 8.0mph /  12.9km/h 15% 0.00in /  0mm 1055.0 W/m2
13:30 90.5 °F /  32.5 °C 38.1 °F /  3.4 °C 30.16in /  1021.2hPa East 0.9mph /  1.4km/h 4.0mph /  6.4km/h 16% 0.00in /  0mm 1055.0 W/m2
13:33 90.7 °F /  32.6 °C 36.7 °F /  2.6 °C 30.15in /  1020.9hPa SW 0.9mph /  1.4km/h 4.0mph /  6.4km/h 15% 0.00in /  0mm 1056.0 W/m2
13:35 90.7 °F /  32.6 °C 38.3 °F /  3.5 °C 30.15in /  1020.9hPa ESE 4.0mph /  6.4km/h 7.0mph /  11.3km/h 16% 0.00in /  0mm 1062.0 W/m2
13:36 90.9 °F /  32.7 °C 36.9 °F /  2.7 °C 30.15in /  1020.9hPa SE 0.9mph /  1.4km/h 4.0mph /  6.4km/h 15% 0.00in /  0mm 1058.0 W/m2
13:39 91.0 °F /  32.8 °C 37.0 °F /  2.8 °C 30.15in /  1020.9hPa SSW 2.0mph /  3.2km/h 5.0mph /  8km/h 15% 0.00in /  0mm 1058.0 W/m2
13:40 91.0 °F /  32.8 °C 37.0 °F /  2.8 °C 30.15in /  1020.9hPa ENE 0.9mph /  1.4km/h 4.0mph /  6.4km/h 15% 0.00in /  0mm 1055.0 W/m2
13:41 91.0 °F /  32.8 °C 37.0 °F /  2.8 °C 30.15in /  1020.9hPa SSE 2.0mph /  3.2km/h 5.0mph /  8km/h 15% 0.00in /  0mm 1051.0 W/m2
13:42 91.2 °F /  32.9 °C 37.0 °F /  2.8 °C 30.15in /  1020.9hPa ESE 2.0mph /  3.2km/h 5.0mph /  8km/h 15% 0.00in /  0mm 1049.0 W/m2
13:43 91.2 °F /  32.9 °C 37.0 °F /  2.8 °C 30.15in /  1020.9hPa ESE 0.9mph /  1.4km/h 3.0mph /  4.8km/h 15% 0.00in /  0mm 1049.0 W/m2
13:44 91.4 °F /  33 °C 37.2 °F /  2.9 °C 30.15in /  1020.9hPa SE 0.9mph /  1.4km/h 3.0mph /  4.8km/h 15% 0.00in /  0mm 1046.0 W/m2
13:48 91.8 °F /  33.2 °C 35.8 °F /  2.1 °C 29.68in /  1005hPa Calm   1.0mph /  1.6km/h 14% 0.00in /  0mm 1046.0 W/m2
13:55 92.5 °F /  33.6 °C 36.3 °F /  2.4 °C 30.14in /  1020.5hPa NNW 2.0mph /  3.2km/h 5.0mph /  8km/h 14% 0.00in /  0mm 1079.0 W/m2
13:56 92.7 °F /  33.7 °C 36.5 °F /  2.5 °C 29.67in /  1004.6hPa Calm   4.0mph /  6.4km/h 14% 0.00in /  0mm 1078.0 W/m2
13:59 93.0 °F /  33.9 °C 36.9 °F /  2.7 °C 30.14in /  1020.5hPa East 2.9mph /  4.7km/h 3.0mph /  4.8km/h 14% 0.00in /  0mm 1092.0 W/m2
14:06 92.7 °F /  33.7 °C 36.5 °F /  2.5 °C 30.14in /  1020.5hPa NW 4.0mph /  6.4km/h 5.0mph /  8km/h 14% 0.00in /  0mm 1056.0 W/m2
14:09 92.8 °F /  33.8 °C 36.7 °F /  2.6 °C 30.14in /  1020.5hPa West 0.9mph /  1.4km/h 6.0mph /  9.7km/h 14% 0.00in /  0mm 1042.0 W/m2
14:10 92.8 °F /  33.8 °C 36.7 °F /  2.6 °C 30.14in /  1020.5hPa NW 10.1mph /  16.3km/h 10.1mph /  16.3km/h 14% 0.00in /  0mm 963.0 W/m2
14:15 92.7 °F /  33.7 °C 34.7 °F /  1.5 °C 30.14in /  1020.5hPa Calm   5.0mph /  8km/h 13% 0.00in /  0mm 1037.0 W/m2
14:17 92.7 °F /  33.7 °C 36.5 °F /  2.5 °C 30.13in /  1020.2hPa NE 2.9mph /  4.7km/h 5.0mph /  8km/h 14% 0.00in /  0mm 1037.0 W/m2
14:18 92.7 °F /  33.7 °C 36.5 °F /  2.5 °C 30.13in /  1020.2hPa NE 4.0mph /  6.4km/h 11.0mph /  17.7km/h 14% 0.00in /  0mm 1042.0 W/m2
14:24 93.0 °F /  33.9 °C 36.9 °F /  2.7 °C 30.13in /  1020.2hPa Calm   6.0mph /  9.7km/h 14% 0.00in /  0mm 1037.0 W/m2
14:27 92.8 °F /  33.8 °C 36.7 °F /  2.6 °C 30.13in /  1020.2hPa ESE 2.9mph /  4.7km/h 5.0mph /  8km/h 14% 0.00in /  0mm 1037.0 W/m2
14:31 93.7 °F /  34.3 °C 35.4 °F /  1.9 °C 30.12in /  1019.9hPa East 0.9mph /  1.4km/h 2.0mph /  3.2km/h 13% 0.00in /  0mm 1011.0 W/m2
14:32 93.6 °F /  34.2 °C 35.4 °F /  1.9 °C 30.13in /  1020.2hPa ENE 0.9mph /  1.4km/h 5.0mph /  8km/h 13% 0.00in /  0mm 1028.0 W/m2
14:34 93.9 °F /  34.4 °C 35.6 °F /  2 °C 30.12in /  1019.9hPa NNE 2.9mph /  4.7km/h 5.0mph /  8km/h 13% 0.00in /  0mm 1005.0 W/m2
14:38 93.9 °F /  34.4 °C 35.6 °F /  2 °C 30.12in /  1019.9hPa NE 2.0mph /  3.2km/h 4.0mph /  6.4km/h 13% 0.00in /  0mm 1002.0 W/m2
14:40 94.3 °F /  34.6 °C 36.0 °F /  2.2 °C 30.12in /  1019.9hPa Calm   5.0mph /  8km/h 13% 0.00in /  0mm 1005.0 W/m2
14:42 94.5 °F /  34.7 °C 36.0 °F /  2.2 °C 30.12in /  1019.9hPa SE 2.0mph /  3.2km/h 4.0mph /  6.4km/h 13% 0.00in /  0mm 995.0 W/m2
14:43 94.5 °F /  34.7 °C 37.9 °F /  3.3 °C 30.12in /  1019.9hPa SE 0.9mph /  1.4km/h 4.0mph /  6.4km/h 14% 0.00in /  0mm 995.0 W/m2
14:45 94.8 °F /  34.9 °C 36.3 °F /  2.4 °C 29.65in /  1003.9hPa SE 4.9mph /  7.9km/h 6.0mph /  9.7km/h 13% 0.00in /  0mm 993.0 W/m2
14:46 95.0 °F /  35 °C 36.5 °F /  2.5 °C 30.12in /  1019.9hPa NNE 2.0mph /  3.2km/h 6.0mph /  9.7km/h 13% 0.00in /  0mm 986.0 W/m2
14:47 95.2 °F /  35.1 °C 34.5 °F /  1.4 °C 29.65in /  1003.9hPa ESE 0.9mph /  1.4km/h 5.0mph /  8km/h 12% 0.00in /  0mm 983.0 W/m2
14:52 95.7 °F /  35.4 °C 37.0 °F /  2.8 °C 30.12in /  1019.9hPa NNE 4.0mph /  6.4km/h 4.0mph /  6.4km/h 13% 0.00in /  0mm 976.0 W/m2
14:53 95.7 °F /  35.4 °C 35.1 °F /  1.7 °C 30.12in /  1019.9hPa NNE 4.0mph /  6.4km/h 6.0mph /  9.7km/h 12% 0.00in /  0mm 986.0 W/m2
14:55 95.7 °F /  35.4 °C 35.1 °F /  1.7 °C 30.12in /  1019.9hPa ENE 0.9mph /  1.4km/h 5.0mph /  8km/h 12% 0.00in /  0mm 969.0 W/m2
15:01 95.5 °F /  35.3 °C 34.9 °F /  1.6 °C 30.12in /  1019.9hPa SE 2.0mph /  3.2km/h 2.0mph /  3.2km/h 12% 0.00in /  0mm 956.0 W/m2
15:02 95.5 °F /  35.3 °C 36.9 °F /  2.7 °C 30.12in /  1019.9hPa Calm   2.0mph /  3.2km/h 13% 0.00in /  0mm 954.0 W/m2
15:05 95.7 °F /  35.4 °C 35.1 °F /  1.7 °C 30.12in /  1019.9hPa NNW 4.0mph /  6.4km/h 5.0mph /  8km/h 12% 0.00in /  0mm 949.0 W/m2
15:07 95.5 °F /  35.3 °C 32.7 °F /  0.4 °C 30.11in /  1019.5hPa NNW 4.9mph /  7.9km/h 12.0mph /  19.3km/h 11% 0.00in /  0mm 944.0 W/m2
15:08 95.5 °F /  35.3 °C 32.7 °F /  0.4 °C 30.11in /  1019.5hPa Calm   8.0mph /  12.9km/h 11% 0.00in /  0mm 942.0 W/m2
15:10 95.5 °F /  35.3 °C 32.7 °F /  0.4 °C 30.11in /  1019.5hPa Calm   2.0mph /  3.2km/h 11% 0.00in /  0mm 937.0 W/m2
15:12 95.5 °F /  35.3 °C 32.7 °F /  0.4 °C 30.11in /  1019.5hPa NNW 2.0mph /  3.2km/h 6.0mph /  9.7km/h 11% 0.00in /  0mm 932.0 W/m2
15:13 95.5 °F /  35.3 °C 32.7 °F /  0.4 °C 29.64in /  1003.6hPa North 2.0mph /  3.2km/h 6.0mph /  9.7km/h 11% 0.00in /  0mm 933.0 W/m2
15:14 95.4 °F /  35.2 °C 32.5 °F /  0.3 °C 30.11in /  1019.5hPa Calm   4.0mph /  6.4km/h 11% 0.00in /  0mm 926.0 W/m2
15:16 95.4 °F /  35.2 °C 32.5 °F /  0.3 °C 30.11in /  1019.5hPa ENE 4.0mph /  6.4km/h 7.0mph /  11.3km/h 11% 0.00in /  0mm 921.0 W/m2
15:19 95.4 °F /  35.2 °C 34.7 °F /  1.5 °C 30.10in /  1019.2hPa South 6.0mph /  9.7km/h 6.0mph /  9.7km/h 12% 0.00in /  0mm 918.0 W/m2
15:25 94.3 °F /  34.6 °C 33.8 °F /  1 °C 30.11in /  1019.5hPa WSW 6.9mph /  11.1km/h 9.0mph /  14.5km/h 12% 0.00in /  0mm 904.0 W/m2
15:30 93.6 °F /  34.2 °C 33.3 °F /  0.7 °C 30.10in /  1019.2hPa WSW 2.0mph /  3.2km/h 9.0mph /  14.5km/h 12% 0.00in /  0mm 907.0 W/m2
15:32 93.6 °F /  34.2 °C 33.3 °F /  0.7 °C 30.10in /  1019.2hPa South 0.9mph /  1.4km/h 8.0mph /  12.9km/h 12% 0.00in /  0mm 907.0 W/m2
15:33 93.7 °F /  34.3 °C 35.4 °F /  1.9 °C 30.10in /  1019.2hPa South 0.9mph /  1.4km/h 9.0mph /  14.5km/h 13% 0.00in /  0mm 905.0 W/m2
15:36 93.4 °F /  34.1 °C 33.3 °F /  0.7 °C 30.10in /  1019.2hPa Calm   3.0mph /  4.8km/h 12% 0.00in /  0mm 912.0 W/m2
15:37 93.6 °F /  34.2 °C 33.3 °F /  0.7 °C 30.10in /  1019.2hPa Calm   3.0mph /  4.8km/h 12% 0.00in /  0mm 909.0 W/m2
15:38 93.6 °F /  34.2 °C 33.3 °F /  0.7 °C 30.10in /  1019.2hPa WSW 2.0mph /  3.2km/h 8.0mph /  12.9km/h 12% 0.00in /  0mm 914.0 W/m2
15:40 93.7 °F /  34.3 °C 33.4 °F /  0.8 °C 30.10in /  1019.2hPa SW 4.0mph /  6.4km/h 5.0mph /  8km/h 12% 0.00in /  0mm 886.0 W/m2
15:48 94.5 °F /  34.7 °C 31.8 °F /  -0.1 °C 30.09in /  1018.8hPa SW 4.0mph /  6.4km/h 10.0mph /  16.1km/h 11% 0.00in /  0mm 872.0 W/m2
15:51 94.6 °F /  34.8 °C 32.0 °F /  0 °C 30.09in /  1018.8hPa West 6.0mph /  9.7km/h 14.0mph /  22.5km/h 11% 0.00in /  0mm 856.0 W/m2
15:52 94.5 °F /  34.7 °C 31.8 °F /  -0.1 °C 30.10in /  1019.2hPa WSW 6.9mph /  11.1km/h 10.0mph /  16.1km/h 11% 0.00in /  0mm 851.0 W/m2
15:54 94.5 °F /  34.7 °C 31.8 °F /  -0.1 °C 29.63in /  1003.3hPa WSW 4.0mph /  6.4km/h 9.0mph /  14.5km/h 11% 0.00in /  0mm 849.0 W/m2
15:55 94.3 °F /  34.6 °C 31.6 °F /  -0.2 °C 30.10in /  1019.2hPa WNW 4.0mph /  6.4km/h 8.0mph /  12.9km/h 11% 0.00in /  0mm 849.0 W/m2
15:59 93.7 °F /  34.3 °C 31.3 °F /  -0.4 °C 29.62in /  1002.9hPa SW 4.0mph /  6.4km/h 6.0mph /  9.7km/h 11% 0.00in /  0mm 837.0 W/m2
16:03 93.7 °F /  34.3 °C 31.3 °F /  -0.4 °C 30.09in /  1018.8hPa Calm   4.0mph /  6.4km/h 11% 0.00in /  0mm 831.0 W/m2
16:12 94.6 °F /  34.8 °C 32.0 °F /  0 °C 30.09in /  1018.8hPa WSW 4.0mph /  6.4km/h 9.0mph /  14.5km/h 11% 0.00in /  0mm 819.0 W/m2
16:15 94.5 °F /  34.7 °C 34.0 °F /  1.1 °C 29.62in /  1002.9hPa SSW 6.0mph /  9.7km/h 7.0mph /  11.3km/h 12% 0.00in /  0mm 812.0 W/m2
16:17 94.5 °F /  34.7 °C 31.8 °F /  -0.1 °C 30.09in /  1018.8hPa SSW 4.9mph /  7.9km/h 8.0mph /  12.9km/h 11% 0.00in /  0mm 803.0 W/m2
16:18 94.3 °F /  34.6 °C 31.6 °F /  -0.2 °C 30.09in /  1018.8hPa South 2.9mph /  4.7km/h 8.0mph /  12.9km/h 11% 0.00in /  0mm 807.0 W/m2
16:19 94.3 °F /  34.6 °C 31.6 °F /  -0.2 °C 30.08in /  1018.5hPa ENE 0.9mph /  1.4km/h 8.0mph /  12.9km/h 11% 0.00in /  0mm 802.0 W/m2
16:20 94.3 °F /  34.6 °C 33.8 °F /  1 °C 30.08in /  1018.5hPa South 0.9mph /  1.4km/h 5.0mph /  8km/h 12% 0.00in /  0mm 802.0 W/m2
16:21 94.3 °F /  34.6 °C 33.8 °F /  1 °C 30.09in /  1018.8hPa SSW 6.9mph /  11.1km/h 7.0mph /  11.3km/h 12% 0.00in /  0mm 796.0 W/m2
16:24 94.5 °F /  34.7 °C 31.8 °F /  -0.1 °C 30.08in /  1018.5hPa SSW 2.0mph /  3.2km/h 9.0mph /  14.5km/h 11% 0.00in /  0mm 791.0 W/m2
16:26 94.6 °F /  34.8 °C 34.2 °F /  1.2 °C 30.08in /  1018.5hPa WSW 2.9mph /  4.7km/h 5.0mph /  8km/h 12% 0.00in /  0mm 777.0 W/m2
16:29 94.8 °F /  34.9 °C 32.2 °F /  0.1 °C 30.08in /  1018.5hPa West 2.9mph /  4.7km/h 3.0mph /  4.8km/h 11% 0.00in /  0mm 780.0 W/m2
16:33 95.2 °F /  35.1 °C 32.4 °F /  0.2 °C 30.08in /  1018.5hPa WNW 4.9mph /  7.9km/h 9.0mph /  14.5km/h 11% 0.00in /  0mm 777.0 W/m2
16:34 95.2 °F /  35.1 °C 32.4 °F /  0.2 °C 30.08in /  1018.5hPa West 6.0mph /  9.7km/h 9.0mph /  14.5km/h 11% 0.00in /  0mm 777.0 W/m2
16:36 95.0 °F /  35 °C 32.2 °F /  0.1 °C 30.08in /  1018.5hPa SSW 2.9mph /  4.7km/h 9.0mph /  14.5km/h 11% 0.00in /  0mm 777.0 W/m2
16:42 95.0 °F /  35 °C 32.2 °F /  0.1 °C 30.08in /  1018.5hPa SE 6.0mph /  9.7km/h 7.0mph /  11.3km/h 11% 0.00in /  0mm 765.0 W/m2
16:44 95.4 °F /  35.2 °C 32.5 °F /  0.3 °C 30.08in /  1018.5hPa East 4.0mph /  6.4km/h 5.0mph /  8km/h 11% 0.00in /  0mm 754.0 W/m2
16:45 94.8 °F /  34.9 °C 32.2 °F /  0.1 °C 30.08in /  1018.5hPa SE 2.0mph /  3.2km/h 3.0mph /  4.8km/h 11% 0.00in /  0mm 773.0 W/m2
16:47 95.4 °F /  35.2 °C 32.5 °F /  0.3 °C 30.08in /  1018.5hPa SSE 2.0mph /  3.2km/h 8.0mph /  12.9km/h 11% 0.00in /  0mm 745.0 W/m2
16:48 95.5 °F /  35.3 °C 32.7 °F /  0.4 °C 30.08in /  1018.5hPa NNE 4.9mph /  7.9km/h 8.0mph /  12.9km/h 11% 0.00in /  0mm 744.0 W/m2
16:52 95.7 °F /  35.4 °C 32.9 °F /  0.5 °C 30.08in /  1018.5hPa Calm   5.0mph /  8km/h 11% 0.00in /  0mm 747.0 W/m2
16:54 95.9 °F /  35.5 °C 32.9 °F /  0.5 °C 30.08in /  1018.5hPa SSE 0.9mph /  1.4km/h 5.0mph /  8km/h 11% 0.00in /  0mm 325.0 W/m2
16:55 95.9 °F /  35.5 °C 30.6 °F /  -0.8 °C 30.08in /  1018.5hPa Calm   4.0mph /  6.4km/h 10% 0.00in /  0mm 325.0 W/m2
16:57 95.7 °F /  35.4 °C 32.9 °F /  0.5 °C 30.08in /  1018.5hPa Calm   5.0mph /  8km/h 11% 0.00in /  0mm 190.0 W/m2
16:58 95.5 °F /  35.3 °C 32.7 °F /  0.4 °C 30.07in /  1018.2hPa SSE 2.9mph /  4.7km/h 4.0mph /  6.4km/h 11% 0.00in /  0mm 197.0 W/m2
17:00 95.4 °F /  35.2 °C 32.5 °F /  0.3 °C 30.08in /  1018.5hPa South 2.0mph /  3.2km/h 6.0mph /  9.7km/h 11% 0.00in /  0mm 691.0 W/m2
17:01 95.4 °F /  35.2 °C 32.5 °F /  0.3 °C 30.07in /  1018.2hPa ESE 4.0mph /  6.4km/h 6.0mph /  9.7km/h 11% 0.00in /  0mm 677.0 W/m2
17:02 95.4 °F /  35.2 °C 32.5 °F /  0.3 °C 30.07in /  1018.2hPa East 6.0mph /  9.7km/h 6.0mph /  9.7km/h 11% 0.00in /  0mm 668.0 W/m2
17:03 95.4 °F /  35.2 °C 34.7 °F /  1.5 °C 30.08in /  1018.5hPa NE 6.0mph /  9.7km/h 7.0mph /  11.3km/h 12% 0.00in /  0mm 621.0 W/m2
17:04 95.4 °F /  35.2 °C 32.5 °F /  0.3 °C 30.08in /  1018.5hPa NNE 0.9mph /  1.4km/h 7.0mph /  11.3km/h 11% 0.00in /  0mm 652.0 W/m2
17:08 95.5 °F /  35.3 °C 34.9 °F /  1.6 °C 29.61in /  1002.6hPa NNW 2.0mph /  3.2km/h 2.0mph /  3.2km/h 12% 0.00in /  0mm 645.0 W/m2
17:09 95.5 °F /  35.3 °C 32.7 °F /  0.4 °C 30.08in /  1018.5hPa ESE 0.9mph /  1.4km/h 5.0mph /  8km/h 11% 0.00in /  0mm 163.0 W/m2
17:10 95.5 °F /  35.3 °C 32.7 °F /  0.4 °C 29.60in /  1002.3hPa NE 2.9mph /  4.7km/h 5.0mph /  8km/h 11% 0.00in /  0mm 160.0 W/m2
17:16 94.8 °F /  34.9 °C 32.2 °F /  0.1 °C 30.07in /  1018.2hPa ENE 2.9mph /  4.7km/h 6.0mph /  9.7km/h 11% 0.00in /  0mm 592.0 W/m2
17:17 94.8 °F /  34.9 °C 32.2 °F /  0.1 °C 30.07in /  1018.2hPa NE 4.9mph /  7.9km/h 10.0mph /  16.1km/h 11% 0.00in /  0mm 587.0 W/m2
17:22 94.5 °F /  34.7 °C 34.0 °F /  1.1 °C 30.07in /  1018.2hPa SSE 4.0mph /  6.4km/h 11.0mph /  17.7km/h 12% 0.00in /  0mm 555.0 W/m2
17:25 94.5 °F /  34.7 °C 31.8 °F /  -0.1 °C 30.07in /  1018.2hPa ESE 6.0mph /  9.7km/h 7.0mph /  11.3km/h 11% 0.00in /  0mm 515.0 W/m2
17:32 93.7 °F /  34.3 °C 31.3 °F /  -0.4 °C 30.07in /  1018.2hPa ESE 4.0mph /  6.4km/h 5.0mph /  8km/h 11% 0.00in /  0mm 100.0 W/m2
17:35 93.6 °F /  34.2 °C 33.3 °F /  0.7 °C 30.07in /  1018.2hPa SSE 0.9mph /  1.4km/h 4.0mph /  6.4km/h 12% 0.00in /  0mm 105.0 W/m2
17:36 93.6 °F /  34.2 °C 33.3 °F /  0.7 °C 30.07in /  1018.2hPa Calm   4.0mph /  6.4km/h 12% 0.00in /  0mm 315.0 W/m2
17:37 93.6 °F /  34.2 °C 33.3 °F /  0.7 °C 30.07in /  1018.2hPa WSW 0.9mph /  1.4km/h 4.0mph /  6.4km/h 12% 0.00in /  0mm 292.0 W/m2
17:39 93.4 °F /  34.1 °C 33.3 °F /  0.7 °C 30.07in /  1018.2hPa SE 0.9mph /  1.4km/h 4.0mph /  6.4km/h 12% 0.00in /  0mm 323.0 W/m2
17:41 93.2 °F /  34 °C 33.1 °F /  0.6 °C 30.07in /  1018.2hPa SSE 0.9mph /  1.4km/h 3.0mph /  4.8km/h 12% 0.00in /  0mm 91.0 W/m2
17:46 92.8 °F /  33.8 °C 32.7 °F /  0.4 °C 30.07in /  1018.2hPa Calm   1.0mph /  1.6km/h 12% 0.00in /  0mm 274.0 W/m2
17:47 92.8 °F /  33.8 °C 32.7 °F /  0.4 °C 30.07in /  1018.2hPa SSW 2.0mph /  3.2km/h 3.0mph /  4.8km/h 12% 0.00in /  0mm 325.0 W/m2
17:49 92.7 °F /  33.7 °C 32.7 °F /  0.4 °C 30.07in /  1018.2hPa Calm   4.0mph /  6.4km/h 12% 0.00in /  0mm 392.0 W/m2
17:52 92.8 °F /  33.8 °C 32.7 °F /  0.4 °C 30.07in /  1018.2hPa Calm   2.0mph /  3.2km/h 12% 0.00in /  0mm 343.0 W/m2
17:53 92.8 °F /  33.8 °C 32.7 °F /  0.4 °C 30.07in /  1018.2hPa SW 0.9mph /  1.4km/h 4.0mph /  6.4km/h 12% 0.00in /  0mm 84.0 W/m2
17:58 92.5 °F /  33.6 °C 32.5 °F /  0.3 °C 30.07in /  1018.2hPa Calm   2.0mph /  3.2km/h 12% 0.00in /  0mm 58.0 W/m2
18:01 92.1 °F /  33.4 °C 32.2 °F /  0.1 °C 30.07in /  1018.2hPa SE 2.9mph /  4.7km/h 3.0mph /  4.8km/h 12% 0.00in /  0mm 54.0 W/m2
18:03 91.9 °F /  33.3 °C 32.0 °F /  0 °C 30.07in /  1018.2hPa SE 0.9mph /  1.4km/h 4.0mph /  6.4km/h 12% 0.00in /  0mm 51.0 W/m2
18:04 91.9 °F /  33.3 °C 32.0 °F /  0 °C 30.07in /  1018.2hPa SE 2.0mph /  3.2km/h 5.0mph /  8km/h 12% 0.00in /  0mm 49.0 W/m2
18:08 91.6 °F /  33.1 °C 31.8 °F /  -0.1 °C 30.07in /  1018.2hPa Calm   1.0mph /  1.6km/h 12% 0.00in /  0mm 46.0 W/m2
18:10 91.4 °F /  33 °C 31.6 °F /  -0.2 °C 30.07in /  1018.2hPa Calm   1.0mph /  1.6km/h 12% 0.00in /  0mm 44.0 W/m2
18:12 91.2 °F /  32.9 °C 31.5 °F /  -0.3 °C 30.07in /  1018.2hPa Calm   2.0mph /  3.2km/h 12% 0.00in /  0mm 40.0 W/m2
18:14 91.2 °F /  32.9 °C 31.5 °F /  -0.3 °C 30.07in /  1018.2hPa SE 2.0mph /  3.2km/h 3.0mph /  4.8km/h 12% 0.00in /  0mm 40.0 W/m2
18:16 91.0 °F /  32.8 °C 31.5 °F /  -0.3 °C 29.60in /  1002.3hPa SE 0.9mph /  1.4km/h 3.0mph /  4.8km/h 12% 0.00in /  0mm 40.0 W/m2
18:17 91.0 °F /  32.8 °C 31.5 °F /  -0.3 °C 30.07in /  1018.2hPa SE 2.9mph /  4.7km/h 3.0mph /  4.8km/h 12% 0.00in /  0mm 40.0 W/m2
18:20 90.9 °F /  32.7 °C 31.3 °F /  -0.4 °C 30.07in /  1018.2hPa Calm   3.0mph /  4.8km/h 12% 0.00in /  0mm 40.0 W/m2
18:21 90.9 °F /  32.7 °C 31.3 °F /  -0.4 °C 30.07in /  1018.2hPa Calm   1.0mph /  1.6km/h 12% 0.00in /  0mm 39.0 W/m2
18:22 90.7 °F /  32.6 °C 31.1 °F /  -0.5 °C 30.07in /  1018.2hPa Calm   1.0mph /  1.6km/h 12% 0.00in /  0mm 40.0 W/m2
18:27 90.5 °F /  32.5 °C 32.9 °F /  0.5 °C 30.07in /  1018.2hPa Calm   1.0mph /  1.6km/h 13% 0.00in /  0mm 42.0 W/m2
18:32 90.1 °F /  32.3 °C 32.7 °F /  0.4 °C 30.07in /  1018.2hPa Calm     13% 0.00in /  0mm 40.0 W/m2
18:35 90.0 °F /  32.2 °C 32.5 °F /  0.3 °C 30.07in /  1018.2hPa Calm     13% 0.00in /  0mm 44.0 W/m2
18:37 90.0 °F /  32.2 °C 32.5 °F /  0.3 °C 30.08in /  1018.5hPa Calm     13% 0.00in /  0mm 46.0 W/m2
18:38 89.8 °F /  32.1 °C 32.4 °F /  0.2 °C 29.60in /  1002.3hPa Calm     13% 0.00in /  0mm 49.0 W/m2
18:40 89.8 °F /  32.1 °C 30.4 °F /  -0.9 °C 30.07in /  1018.2hPa Calm     12% 0.00in /  0mm 44.0 W/m2
18:41 89.6 °F /  32 °C 32.2 °F /  0.1 °C 30.07in /  1018.2hPa Calm     13% 0.00in /  0mm 53.0 W/m2
18:45 89.4 °F /  31.9 °C 32.2 °F /  0.1 °C 30.07in /  1018.2hPa SE 0.9mph /  1.4km/h 2.0mph /  3.2km/h 13% 0.00in /  0mm 39.0 W/m2
18:46 89.4 °F /  31.9 °C 32.2 °F /  0.1 °C 30.07in /  1018.2hPa Calm   2.0mph /  3.2km/h 13% 0.00in /  0mm 37.0 W/m2
18:47 89.2 °F /  31.8 °C 32.0 °F /  0 °C 30.07in /  1018.2hPa Calm   2.0mph /  3.2km/h 13% 0.00in /  0mm 35.0 W/m2
18:48 89.2 °F /  31.8 °C 32.0 °F /  0 °C 30.07in /  1018.2hPa Calm   2.0mph /  3.2km/h 13% 0.00in /  0mm 33.0 W/m2
18:50 89.2 °F /  31.8 °C 33.8 °F /  1 °C 30.08in /  1018.5hPa East 0.9mph /  1.4km/h 3.0mph /  4.8km/h 14% 0.00in /  0mm 32.0 W/m2
18:51 89.2 °F /  31.8 °C 32.0 °F /  0 °C 30.08in /  1018.5hPa ESE 0.9mph /  1.4km/h 3.0mph /  4.8km/h 13% 0.00in /  0mm 30.0 W/m2
18:53 89.1 °F /  31.7 °C 31.8 °F /  -0.1 °C 30.08in /  1018.5hPa Calm   4.0mph /  6.4km/h 13% 0.00in /  0mm 30.0 W/m2
18:55 89.1 °F /  31.7 °C 31.8 °F /  -0.1 °C 30.08in /  1018.5hPa Calm   1.0mph /  1.6km/h 13% 0.00in /  0mm 28.0 W/m2
18:57 89.2 °F /  31.8 °C 32.0 °F /  0 °C 30.08in /  1018.5hPa SE 0.9mph /  1.4km/h 4.0mph /  6.4km/h 13% 0.00in /  0mm 30.0 W/m2
18:58 88.9 °F /  31.6 °C 33.6 °F /  0.9 °C 30.08in /  1018.5hPa Calm   1.0mph /  1.6km/h 14% 0.00in /  0mm 28.0 W/m2
19:01 88.9 °F /  31.6 °C 31.6 °F /  -0.2 °C 30.08in /  1018.5hPa Calm     13% 0.00in /  0mm 32.0 W/m2
19:02 88.9 °F /  31.6 °C 31.6 °F /  -0.2 °C 30.08in /  1018.5hPa Calm   1.0mph /  1.6km/h 13% 0.00in /  0mm 30.0 W/m2
19:04 88.9 °F /  31.6 °C 31.6 °F /  -0.2 °C 30.08in /  1018.5hPa SE 0.9mph /  1.4km/h 4.0mph /  6.4km/h 13% 0.00in /  0mm 25.0 W/m2
19:05 88.7 °F /  31.5 °C 31.5 °F /  -0.3 °C 29.61in /  1002.6hPa Calm   4.0mph /  6.4km/h 13% 0.00in /  0mm 25.0 W/m2
19:07 88.5 °F /  31.4 °C 31.5 °F /  -0.3 °C 29.61in /  1002.6hPa Calm   1.0mph /  1.6km/h 13% 0.00in /  0mm 25.0 W/m2
19:08 88.5 °F /  31.4 °C 31.5 °F /  -0.3 °C 30.08in /  1018.5hPa Calm   1.0mph /  1.6km/h 13% 0.00in /  0mm 25.0 W/m2
19:10 88.5 °F /  31.4 °C 33.3 °F /  0.7 °C 30.08in /  1018.5hPa SE 0.9mph /  1.4km/h 1.0mph /  1.6km/h 14% 0.00in /  0mm 26.0 W/m2
19:12 88.3 °F /  31.3 °C 31.3 °F /  -0.4 °C 30.08in /  1018.5hPa Calm   1.0mph /  1.6km/h 13% 0.00in /  0mm 26.0 W/m2
19:15 88.3 °F /  31.3 °C 31.3 °F /  -0.4 °C 30.08in /  1018.5hPa Calm   1.0mph /  1.6km/h 13% 0.00in /  0mm 21.0 W/m2
19:16 88.2 °F /  31.2 °C 31.1 °F /  -0.5 °C 30.08in /  1018.5hPa Calm   1.0mph /  1.6km/h 13% 0.00in /  0mm 21.0 W/m2
19:21 88.2 °F /  31.2 °C 32.9 °F /  0.5 °C 30.08in /  1018.5hPa SE 0.9mph /  1.4km/h 2.0mph /  3.2km/h 14% 0.00in /  0mm 21.0 W/m2
19:28 88.0 °F /  31.1 °C 32.9 °F /  0.5 °C 30.08in /  1018.5hPa SE 0.9mph /  1.4km/h 3.0mph /  4.8km/h 14% 0.00in /  0mm 19.0 W/m2
19:33 87.4 °F /  30.8 °C 32.4 °F /  0.2 °C 30.08in /  1018.5hPa Calm   1.0mph /  1.6km/h 14% 0.00in /  0mm 7.0 W/m2
19:38 87.1 °F /  30.6 °C 33.8 °F /  1 °C 30.08in /  1018.5hPa Calm   2.0mph /  3.2km/h 15% 0.00in /  0mm 5.0 W/m2
19:43 86.7 °F /  30.4 °C 33.6 °F /  0.9 °C 30.08in /  1018.5hPa Calm   2.0mph /  3.2km/h 15% 0.00in /  0mm 0.0 W/m2
19:48 86.4 °F /  30.2 °C 31.5 °F /  -0.3 °C 30.08in /  1018.5hPa Calm   2.0mph /  3.2km/h 14% 0.00in /  0mm 0.0 W/m2
19:53 86.2 °F /  30.1 °C 31.5 °F /  -0.3 °C 29.61in /  1002.6hPa SE 0.9mph /  1.4km/h 6.0mph /  9.7km/h 14% 0.00in /  0mm 0.0 W/m2
19:58 86.0 °F /  30 °C 31.3 °F /  -0.4 °C 30.08in /  1018.5hPa SE 2.0mph /  3.2km/h 5.0mph /  8km/h 14% 0.00in /  0mm 0.0 W/m2
20:03 85.6 °F /  29.8 °C 32.7 °F /  0.4 °C 30.08in /  1018.5hPa SE 2.0mph /  3.2km/h 5.0mph /  8km/h 15% 0.00in /  0mm 0.0 W/m2
20:08 85.3 °F /  29.6 °C 32.4 °F /  0.2 °C 30.09in /  1018.8hPa SE 2.0mph /  3.2km/h 3.0mph /  4.8km/h 15% 0.00in /  0mm 0.0 W/m2
20:10 85.1 °F /  29.5 °C 32.2 °F /  0.1 °C 29.62in /  1002.9hPa SE 0.9mph /  1.4km/h 6.0mph /  9.7km/h 15% 0.00in /  0mm 0.0 W/m2
20:13 84.9 °F /  29.4 °C 32.2 °F /  0.1 °C 30.09in /  1018.8hPa Calm   2.0mph /  3.2km/h 15% 0.00in /  0mm 0.0 W/m2
20:18 84.7 °F /  29.3 °C 32.0 °F /  0 °C 30.09in /  1018.8hPa SE 0.9mph /  1.4km/h 2.0mph /  3.2km/h 15% 0.00in /  0mm 0.0 W/m2
20:28 84.6 °F /  29.2 °C 31.8 °F /  -0.1 °C 29.63in /  1003.3hPa ESE 2.0mph /  3.2km/h 2.0mph /  3.2km/h 15% 0.00in /  0mm 0.0 W/m2
20:30 84.6 °F /  29.2 °C 31.8 °F /  -0.1 °C 30.10in /  1019.2hPa Calm   2.0mph /  3.2km/h 15% 0.00in /  0mm 0.0 W/m2
20:36 84.4 °F /  29.1 °C 33.3 °F /  0.7 °C 30.10in /  1019.2hPa Calm     16% 0.00in /  0mm 0.0 W/m2
20:38 84.2 °F /  29 °C 31.5 °F /  -0.3 °C 30.10in /  1019.2hPa Calm     15% 0.00in /  0mm 0.0 W/m2
20:40 84.2 °F /  29 °C 33.1 °F /  0.6 °C 30.10in /  1019.2hPa Calm   1.0mph /  1.6km/h 16% 0.00in /  0mm 0.0 W/m2
20:44 84.0 °F /  28.9 °C 33.1 °F /  0.6 °C 30.10in /  1019.2hPa Calm   1.0mph /  1.6km/h 16% 0.00in /  0mm 0.0 W/m2
20:46 83.8 °F /  28.8 °C 32.9 °F /  0.5 °C 30.11in /  1019.5hPa Calm   1.0mph /  1.6km/h 16% 0.00in /  0mm 0.0 W/m2
20:48 83.8 °F /  28.8 °C 32.9 °F /  0.5 °C 30.11in /  1019.5hPa Calm   1.0mph /  1.6km/h 16% 0.00in /  0mm 0.0 W/m2
20:50 83.8 °F /  28.8 °C 32.9 °F /  0.5 °C 30.11in /  1019.5hPa Calm     16% 0.00in /  0mm 0.0 W/m2
20:56 83.5 °F /  28.6 °C 32.5 °F /  0.3 °C 30.11in /  1019.5hPa Calm   1.0mph /  1.6km/h 16% 0.00in /  0mm 0.0 W/m2
20:58 83.3 °F /  28.5 °C 32.4 °F /  0.2 °C 30.11in /  1019.5hPa Calm   1.0mph /  1.6km/h 16% 0.00in /  0mm 0.0 W/m2
21:01 83.1 °F /  28.4 °C 32.4 °F /  0.2 °C 30.11in /  1019.5hPa Calm     16% 0.00in /  0mm 0.0 W/m2
21:02 83.1 °F /  28.4 °C 32.4 °F /  0.2 °C 30.11in /  1019.5hPa Calm     16% 0.00in /  0mm 0.0 W/m2
21:04 82.9 °F /  28.3 °C 32.2 °F /  0.1 °C 30.11in /  1019.5hPa Calm   1.0mph /  1.6km/h 16% 0.00in /  0mm 0.0 W/m2
21:07 82.8 °F /  28.2 °C 32.0 °F /  0 °C 30.11in /  1019.5hPa SW 0.9mph /  1.4km/h 1.0mph /  1.6km/h 16% 0.00in /  0mm 0.0 W/m2
21:08 82.8 °F /  28.2 °C 32.0 °F /  0 °C 30.11in /  1019.5hPa Calm   1.0mph /  1.6km/h 16% 0.00in /  0mm 0.0 W/m2
21:13 82.4 °F /  28 °C 31.6 °F /  -0.2 °C 30.12in /  1019.9hPa Calm     16% 0.00in /  0mm 0.0 W/m2
21:21 81.9 °F /  27.7 °C 31.3 °F /  -0.4 °C 30.12in /  1019.9hPa SW 2.0mph /  3.2km/h 2.0mph /  3.2km/h 16% 0.00in /  0mm 0.0 W/m2
Olympia, Windhoek, Namibia
Compliments of Weather Underground - 4.75 mb